QFA1 YSSY-WSSS
Flight info
| Callsign | QFA1 |
|---|---|
| Flight time | 7h 41m |
| Altitude | 36000 |
| Route | TESAT A576 PKS G222 JUGGL/N0491F380 G222 SAPDA A585 PLB G579 SJ |
| Aircraft | A388/J-SADE2E3FGHIJ3J4J5M1RWXY/LB1D1 |
Departure
| Time | 2026-04-20 23:56 |
|---|---|
| Airport | Sydney Kingsford Smith International Airport (YSSY) |
Arrival
| Time | 2026-04-21 07:38 |
|---|---|
| Airport | Singapore Changi Airport (WSSS) |
| Time | Latitude | Longitude | Altitude | Speed | Heading |
|---|---|---|---|---|---|
| 2026-04-20 23:46 | -33.93558 | 151.16830 | 35 ft | 0 kts | 237° |
| 2026-04-20 23:48 | -33.93556 | 151.16833 | 34 ft | 2 kts | 237° |
| 2026-04-20 23:48 | -33.93549 | 151.16845 | 34 ft | 2 kts | 237° |
| 2026-04-20 23:48 | -33.93543 | 151.16858 | 32 ft | 2 kts | 240° |
| 2026-04-20 23:49 | -33.93537 | 151.16872 | 31 ft | 2 kts | 246° |
| 2026-04-20 23:49 | -33.93533 | 151.16886 | 33 ft | 2 kts | 252° |
| 2026-04-20 23:49 | -33.93530 | 151.16901 | 33 ft | 2 kts | 258° |
| 2026-04-20 23:49 | -33.93528 | 151.16916 | 32 ft | 2 kts | 261° |
| 2026-04-20 23:50 | -33.93525 | 151.16932 | 32 ft | 3 kts | 258° |
| 2026-04-20 23:50 | -33.93522 | 151.16954 | 34 ft | 3 kts | 258° |
| 2026-04-20 23:50 | -33.93518 | 151.16975 | 34 ft | 3 kts | 258° |
| 2026-04-20 23:50 | -33.93516 | 151.16983 | 33 ft | 0 kts | 258° |
| 2026-04-20 23:51 | -33.93517 | 151.16972 | 34 ft | 3 kts | 280° |
| 2026-04-20 23:52 | -33.93496 | 151.16930 | 33 ft | 8 kts | 324° |
| 2026-04-20 23:52 | -33.93420 | 151.16900 | 35 ft | 16 kts | 349° |
| 2026-04-20 23:52 | -33.93300 | 151.16907 | 35 ft | 19 kts | 32° |
| 2026-04-20 23:52 | -33.93154 | 151.16933 | 35 ft | 23 kts | 350° |
| 2026-04-20 23:53 | -33.93032 | 151.16906 | 35 ft | 8 kts | 7° |
| 2026-04-20 23:53 | -33.93014 | 151.16915 | 35 ft | 3 kts | 32° |
| 2026-04-20 23:53 | -33.92997 | 151.16932 | 35 ft | 4 kts | 51° |
| 2026-04-20 23:53 | -33.92982 | 151.16966 | 35 ft | 6 kts | 70° |
| 2026-04-20 23:54 | -33.92968 | 151.17020 | 35 ft | 7 kts | 75° |
| 2026-04-20 23:54 | -33.92960 | 151.17094 | 35 ft | 12 kts | 86° |
| 2026-04-20 23:54 | -33.92958 | 151.17154 | 35 ft | 4 kts | 90° |
| 2026-04-20 23:54 | -33.92960 | 151.17169 | 35 ft | 0 kts | 128° |
| 2026-04-20 23:55 | -33.92962 | 151.17171 | 34 ft | 0 kts | 139° |
| 2026-04-20 23:55 | -33.93004 | 151.17180 | 35 ft | 28 kts | 175° |
| 2026-04-20 23:55 | -33.93434 | 151.17286 | 32 ft | 96 kts | 168° |
| 2026-04-20 23:55 | -33.94261 | 151.17503 | 35 ft | 142 kts | 168° |
| 2026-04-20 23:56 | -33.95337 | 151.17788 | 37 ft | 172 kts | 168° |
| 2026-04-20 23:56 | -33.96531 | 151.18104 | 304 ft | 176 kts | 171° |
| 2026-04-20 23:56 | -33.97727 | 151.18375 | 762 ft | 175 kts | 171° |
| 2026-04-20 23:56 | -33.98921 | 151.18681 | 1188 ft | 175 kts | 168° |
| 2026-04-20 23:57 | -34.00106 | 151.19026 | 1578 ft | 175 kts | 168° |
| 2026-04-20 23:57 | -34.01320 | 151.19378 | 1840 ft | 184 kts | 171° |
| 2026-04-20 23:57 | -34.02601 | 151.19167 | 2092 ft | 192 kts | 206° |
| 2026-04-20 23:57 | -34.03678 | 151.18233 | 2545 ft | 192 kts | 218° |
| 2026-04-20 23:58 | -34.04435 | 151.16829 | 2667 ft | 220 kts | 250° |
| 2026-04-20 23:58 | -34.04447 | 151.14871 | 2949 ft | 252 kts | 280° |
| 2026-04-20 23:58 | -34.03719 | 151.12848 | 3395 ft | 270 kts | 296° |
| 2026-04-20 23:58 | -34.02753 | 151.10870 | 4037 ft | 277 kts | 297° |
| 2026-04-20 23:59 | -34.01799 | 151.08842 | 4799 ft | 279 kts | 295° |
| 2026-04-20 23:59 | -34.00902 | 151.06756 | 5555 ft | 282 kts | 294° |
| 2026-04-20 23:59 | -34.00051 | 151.04641 | 6291 ft | 285 kts | 292° |
| 2026-04-20 23:59 | -33.99207 | 151.02471 | 7044 ft | 287 kts | 292° |
| 2026-04-21 00:00 | -33.98368 | 151.00288 | 7733 ft | 289 kts | 292° |
| 2026-04-21 00:00 | -33.97525 | 150.98082 | 8422 ft | 292 kts | 292° |
| 2026-04-21 00:00 | -33.96671 | 150.95853 | 9139 ft | 294 kts | 292° |
| 2026-04-21 00:00 | -33.95808 | 150.93605 | 9860 ft | 296 kts | 292° |
| 2026-04-21 00:01 | -33.94937 | 150.91342 | 10504 ft | 300 kts | 292° |
| 2026-04-21 00:01 | -33.94054 | 150.89044 | 10809 ft | 316 kts | 292° |
| 2026-04-21 00:01 | -33.93092 | 150.86541 | 10982 ft | 334 kts | 292° |
| 2026-04-21 00:01 | -33.92128 | 150.84038 | 11211 ft | 348 kts | 292° |
| 2026-04-21 00:02 | -33.91073 | 150.81310 | 11761 ft | 351 kts | 292° |
| 2026-04-21 00:02 | -33.90034 | 150.78628 | 12343 ft | 355 kts | 292° |
| 2026-04-21 00:02 | -33.88987 | 150.75926 | 12913 ft | 358 kts | 292° |
| 2026-04-21 00:02 | -33.87929 | 150.73195 | 13468 ft | 362 kts | 292° |
| 2026-04-21 00:03 | -33.86862 | 150.70440 | 14048 ft | 365 kts | 292° |
| 2026-04-21 00:03 | -33.85782 | 150.67656 | 14560 ft | 368 kts | 292° |
| 2026-04-21 00:03 | -33.84695 | 150.64853 | 15093 ft | 371 kts | 292° |
| 2026-04-21 00:03 | -33.83599 | 150.62031 | 15610 ft | 374 kts | 292° |
| 2026-04-21 00:04 | -33.82494 | 150.59188 | 16121 ft | 376 kts | 292° |
| 2026-04-21 00:04 | -33.81382 | 150.56328 | 16593 ft | 380 kts | 292° |
| 2026-04-21 00:04 | -33.80258 | 150.53442 | 17113 ft | 382 kts | 292° |
| 2026-04-21 00:04 | -33.79135 | 150.50561 | 17564 ft | 386 kts | 292° |
| 2026-04-21 00:05 | -33.77994 | 150.47635 | 18028 ft | 389 kts | 292° |
| 2026-04-21 00:05 | -33.76843 | 150.44687 | 18547 ft | 391 kts | 292° |
| 2026-04-21 00:05 | -33.75679 | 150.41708 | 18990 ft | 394 kts | 292° |
| 2026-04-21 00:05 | -33.74505 | 150.38706 | 19398 ft | 396 kts | 291° |
| 2026-04-21 00:06 | -33.73328 | 150.35699 | 19805 ft | 399 kts | 291° |
| 2026-04-21 00:06 | -33.72144 | 150.32678 | 20219 ft | 401 kts | 291° |
| 2026-04-21 00:06 | -33.70991 | 150.29614 | 20581 ft | 403 kts | 287° |
| 2026-04-21 00:06 | -33.70104 | 150.26426 | 20973 ft | 403 kts | 284° |
| 2026-04-21 00:07 | -33.69243 | 150.23211 | 21347 ft | 405 kts | 284° |
| 2026-04-21 00:07 | -33.68384 | 150.20033 | 21737 ft | 408 kts | 284° |
| 2026-04-21 00:07 | -33.67499 | 150.16777 | 22113 ft | 410 kts | 284° |
| 2026-04-21 00:07 | -33.66612 | 150.13513 | 22487 ft | 413 kts | 284° |
| 2026-04-21 00:08 | -33.65718 | 150.10230 | 22853 ft | 415 kts | 284° |
| 2026-04-21 00:08 | -33.64814 | 150.06920 | 23234 ft | 418 kts | 284° |
| 2026-04-21 00:08 | -33.63907 | 150.03602 | 23635 ft | 420 kts | 284° |
| 2026-04-21 00:08 | -33.62994 | 150.00264 | 23996 ft | 422 kts | 284° |
| 2026-04-21 00:09 | -33.62075 | 149.96912 | 24290 ft | 424 kts | 284° |
| 2026-04-21 00:09 | -33.61152 | 149.93549 | 24624 ft | 425 kts | 284° |
| 2026-04-21 00:09 | -33.60224 | 149.90168 | 24955 ft | 427 kts | 284° |
| 2026-04-21 00:09 | -33.59291 | 149.86775 | 25258 ft | 430 kts | 284° |
| 2026-04-21 00:10 | -33.58353 | 149.83368 | 25620 ft | 431 kts | 284° |
| 2026-04-21 00:10 | -33.57410 | 149.79946 | 25950 ft | 433 kts | 284° |
| 2026-04-21 00:10 | -33.56464 | 149.76516 | 26301 ft | 435 kts | 284° |
| 2026-04-21 00:10 | -33.55509 | 149.73061 | 26668 ft | 437 kts | 284° |
| 2026-04-21 00:11 | -33.54550 | 149.69593 | 27042 ft | 439 kts | 284° |
| 2026-04-21 00:11 | -33.53588 | 149.66119 | 27418 ft | 441 kts | 284° |
| 2026-04-21 00:11 | -33.52617 | 149.62619 | 27799 ft | 443 kts | 284° |
| 2026-04-21 00:11 | -33.51642 | 149.59106 | 28178 ft | 445 kts | 284° |
| 2026-04-21 00:12 | -33.50660 | 149.55574 | 28556 ft | 448 kts | 284° |
| 2026-04-21 00:12 | -33.49683 | 149.52063 | 28931 ft | 450 kts | 284° |
| 2026-04-21 00:12 | -33.48691 | 149.48505 | 29326 ft | 452 kts | 284° |
| 2026-04-21 00:12 | -33.47691 | 149.44923 | 29720 ft | 455 kts | 284° |
| 2026-04-21 00:13 | -33.46683 | 149.41311 | 30103 ft | 457 kts | 284° |
| 2026-04-21 00:13 | -33.45670 | 149.37690 | 30501 ft | 460 kts | 284° |
| 2026-04-21 00:13 | -33.44651 | 149.34053 | 30861 ft | 461 kts | 283° |
| 2026-04-21 00:13 | -33.43627 | 149.30404 | 31226 ft | 463 kts | 283° |
| 2026-04-21 00:14 | -33.42599 | 149.26743 | 31579 ft | 465 kts | 283° |
| 2026-04-21 00:14 | -33.41566 | 149.23071 | 31929 ft | 467 kts | 283° |
| 2026-04-21 00:14 | -33.40526 | 149.19376 | 32284 ft | 468 kts | 284° |
| 2026-04-21 00:14 | -33.39482 | 149.15674 | 32634 ft | 470 kts | 283° |
| 2026-04-21 00:15 | -33.38432 | 149.11954 | 32955 ft | 472 kts | 283° |
| 2026-04-21 00:15 | -33.37381 | 149.08236 | 33298 ft | 474 kts | 283° |
| 2026-04-21 00:15 | -33.36322 | 149.04492 | 33646 ft | 476 kts | 283° |
| 2026-04-21 00:15 | -33.35273 | 149.00790 | 33998 ft | 477 kts | 284° |
| 2026-04-21 00:16 | -33.34205 | 148.97026 | 34317 ft | 479 kts | 284° |
| 2026-04-21 00:16 | -33.33129 | 148.93238 | 34624 ft | 481 kts | 284° |
| 2026-04-21 00:16 | -33.32050 | 148.89448 | 34903 ft | 483 kts | 284° |
| 2026-04-21 00:16 | -33.30965 | 148.85639 | 35216 ft | 484 kts | 284° |
| 2026-04-21 00:17 | -33.29880 | 148.81838 | 35601 ft | 483 kts | 284° |
| 2026-04-21 00:17 | -33.28795 | 148.78041 | 36015 ft | 482 kts | 284° |
| 2026-04-21 00:17 | -33.27712 | 148.74258 | 36358 ft | 482 kts | 284° |
| 2026-04-21 00:18 | -33.25529 | 148.66639 | 36392 ft | 482 kts | 284° |
| 2026-04-21 00:18 | -33.23349 | 148.59050 | 36390 ft | 484 kts | 284° |
| 2026-04-21 00:19 | -33.21159 | 148.51447 | 36389 ft | 483 kts | 284° |
| 2026-04-21 00:19 | -33.18966 | 148.43856 | 36392 ft | 483 kts | 284° |
| 2026-04-21 00:20 | -33.16786 | 148.36326 | 36384 ft | 482 kts | 284° |
| 2026-04-21 00:20 | -33.14591 | 148.28765 | 36381 ft | 481 kts | 284° |
| 2026-04-21 00:21 | -33.12250 | 148.21286 | 36376 ft | 484 kts | 289° |
| 2026-04-21 00:21 | -33.09553 | 148.13932 | 36372 ft | 484 kts | 288° |
| 2026-04-21 00:22 | -33.06882 | 148.06560 | 36375 ft | 484 kts | 288° |
| 2026-04-21 00:22 | -33.04208 | 147.99208 | 36377 ft | 484 kts | 288° |
| 2026-04-21 00:23 | -33.01513 | 147.91830 | 36384 ft | 484 kts | 289° |
| 2026-04-21 00:23 | -32.98821 | 147.84480 | 36391 ft | 484 kts | 289° |
| 2026-04-21 00:24 | -32.96143 | 147.77183 | 36389 ft | 484 kts | 289° |
| 2026-04-21 00:24 | -32.93445 | 147.69846 | 36388 ft | 484 kts | 289° |
| 2026-04-21 00:25 | -32.90743 | 147.62517 | 36392 ft | 483 kts | 289° |
| 2026-04-21 00:25 | -32.88040 | 147.55199 | 36387 ft | 483 kts | 289° |
| 2026-04-21 00:26 | -32.85334 | 147.47891 | 36386 ft | 482 kts | 289° |
| 2026-04-21 00:26 | -32.82630 | 147.40604 | 36381 ft | 482 kts | 289° |
| 2026-04-21 00:27 | -32.79923 | 147.33324 | 36379 ft | 481 kts | 289° |
| 2026-04-21 00:27 | -32.77212 | 147.26047 | 36380 ft | 481 kts | 289° |
| 2026-04-21 00:28 | -32.74498 | 147.18781 | 36374 ft | 481 kts | 289° |
| 2026-04-21 00:28 | -32.71786 | 147.11533 | 36374 ft | 480 kts | 289° |
| 2026-04-21 00:29 | -32.69069 | 147.04288 | 36376 ft | 480 kts | 289° |
| 2026-04-21 00:29 | -32.66345 | 146.97042 | 36377 ft | 480 kts | 289° |
| 2026-04-21 00:30 | -32.63620 | 146.89805 | 36377 ft | 480 kts | 289° |
| 2026-04-21 00:30 | -32.61353 | 146.83800 | 36375 ft | 480 kts | 289° |
| 2026-04-21 00:31 | -32.58619 | 146.76570 | 36381 ft | 480 kts | 289° |
| 2026-04-21 00:31 | -32.55443 | 146.68189 | 36376 ft | 479 kts | 289° |
| 2026-04-21 00:32 | -32.53148 | 146.62146 | 36377 ft | 479 kts | 290° |
| 2026-04-21 00:32 | -32.50409 | 146.54949 | 36372 ft | 479 kts | 290° |
| 2026-04-21 00:33 | -32.47682 | 146.47798 | 36378 ft | 479 kts | 290° |
| 2026-04-21 00:33 | -32.44937 | 146.40615 | 36372 ft | 479 kts | 290° |
| 2026-04-21 00:34 | -32.42189 | 146.33438 | 36372 ft | 479 kts | 290° |
| 2026-04-21 00:34 | -32.39434 | 146.26260 | 36368 ft | 478 kts | 290° |
| 2026-04-21 00:35 | -32.36678 | 146.19092 | 36365 ft | 478 kts | 290° |
| 2026-04-21 00:35 | -32.33922 | 146.11939 | 36360 ft | 478 kts | 290° |
| 2026-04-21 00:36 | -32.31163 | 146.04795 | 36362 ft | 477 kts | 290° |
| 2026-04-21 00:36 | -32.28401 | 145.97657 | 36349 ft | 477 kts | 290° |
| 2026-04-21 00:37 | -32.25637 | 145.90527 | 36345 ft | 477 kts | 290° |
| 2026-04-21 00:37 | -32.22868 | 145.83401 | 36359 ft | 477 kts | 290° |
| 2026-04-21 00:38 | -32.20106 | 145.76307 | 36356 ft | 477 kts | 290° |
| 2026-04-21 00:38 | -32.17332 | 145.69196 | 36354 ft | 476 kts | 290° |
| 2026-04-21 00:39 | -32.14571 | 145.62134 | 36357 ft | 476 kts | 290° |
| 2026-04-21 00:39 | -32.11775 | 145.54996 | 36354 ft | 476 kts | 290° |
| 2026-04-21 00:40 | -32.09011 | 145.47955 | 36355 ft | 476 kts | 290° |
| 2026-04-21 00:40 | -32.06229 | 145.40881 | 36351 ft | 475 kts | 290° |
| 2026-04-21 00:41 | -32.03448 | 145.33815 | 36350 ft | 475 kts | 290° |
| 2026-04-21 00:41 | -32.00655 | 145.26750 | 36348 ft | 475 kts | 290° |
| 2026-04-21 00:42 | -31.97858 | 145.19712 | 36348 ft | 475 kts | 290° |
| 2026-04-21 00:42 | -31.95059 | 145.12663 | 36348 ft | 474 kts | 290° |
| 2026-04-21 00:43 | -31.92257 | 145.05620 | 36349 ft | 474 kts | 290° |
| 2026-04-21 00:43 | -31.89471 | 144.98634 | 36349 ft | 474 kts | 290° |
| 2026-04-21 00:44 | -31.86665 | 144.91612 | 36349 ft | 474 kts | 290° |
| 2026-04-21 00:44 | -31.83855 | 144.84595 | 36347 ft | 474 kts | 290° |
| 2026-04-21 00:45 | -31.79633 | 144.74075 | 36343 ft | 474 kts | 290° |
| 2026-04-21 00:45 | -31.76819 | 144.67081 | 36343 ft | 474 kts | 290° |
| 2026-04-21 00:46 | -31.73998 | 144.60084 | 36342 ft | 473 kts | 290° |
| 2026-04-21 00:46 | -31.71173 | 144.53092 | 36342 ft | 473 kts | 290° |
| 2026-04-21 00:47 | -31.68359 | 144.46141 | 36339 ft | 473 kts | 290° |
| 2026-04-21 00:47 | -31.65531 | 144.39167 | 36335 ft | 473 kts | 290° |
| 2026-04-21 00:48 | -31.62699 | 144.32197 | 36334 ft | 473 kts | 290° |
| 2026-04-21 00:48 | -31.59861 | 144.25227 | 36335 ft | 473 kts | 290° |
| 2026-04-21 00:49 | -31.57022 | 144.18268 | 36333 ft | 473 kts | 290° |
| 2026-04-21 00:49 | -31.54178 | 144.11310 | 36334 ft | 473 kts | 290° |
| 2026-04-21 00:50 | -31.51333 | 144.04362 | 36334 ft | 473 kts | 290° |
| 2026-04-21 00:50 | -31.48485 | 143.97420 | 36335 ft | 473 kts | 290° |
| 2026-04-21 00:51 | -31.45630 | 143.90476 | 36334 ft | 472 kts | 290° |
| 2026-04-21 00:51 | -31.42791 | 143.83583 | 36324 ft | 472 kts | 290° |
| 2026-04-21 00:52 | -31.39933 | 143.76657 | 36323 ft | 472 kts | 290° |
| 2026-04-21 00:52 | -31.37074 | 143.69743 | 36323 ft | 472 kts | 290° |
| 2026-04-21 00:53 | -31.34211 | 143.62832 | 36331 ft | 472 kts | 290° |
| 2026-04-21 00:53 | -31.31345 | 143.55926 | 36329 ft | 472 kts | 290° |
| 2026-04-21 00:54 | -31.28471 | 143.49013 | 36327 ft | 472 kts | 290° |
| 2026-04-21 00:54 | -31.25595 | 143.42111 | 36328 ft | 472 kts | 290° |
| 2026-04-21 00:55 | -31.22731 | 143.35250 | 36328 ft | 472 kts | 289° |
| 2026-04-21 00:55 | -31.19847 | 143.28353 | 36323 ft | 472 kts | 289° |
| 2026-04-21 00:56 | -31.16959 | 143.21461 | 36327 ft | 472 kts | 289° |
| 2026-04-21 00:56 | -31.14071 | 143.14580 | 36325 ft | 472 kts | 289° |
| 2026-04-21 00:57 | -31.11174 | 143.07690 | 36323 ft | 472 kts | 289° |
| 2026-04-21 00:57 | -31.08274 | 143.00808 | 36321 ft | 472 kts | 289° |
| 2026-04-21 00:58 | -31.05371 | 142.93932 | 36323 ft | 472 kts | 289° |
| 2026-04-21 00:58 | -31.02464 | 142.87055 | 36328 ft | 472 kts | 289° |
| 2026-04-21 00:59 | -30.99557 | 142.80185 | 36322 ft | 472 kts | 289° |
| 2026-04-21 00:59 | -30.96639 | 142.73323 | 36326 ft | 473 kts | 289° |
| 2026-04-21 01:00 | -30.93739 | 142.66506 | 36323 ft | 473 kts | 289° |
| 2026-04-21 01:00 | -30.90813 | 142.59639 | 36324 ft | 473 kts | 289° |
| 2026-04-21 01:01 | -30.87887 | 142.52787 | 36321 ft | 472 kts | 289° |
| 2026-04-21 01:01 | -30.84958 | 142.45939 | 36319 ft | 472 kts | 289° |
| 2026-04-21 01:02 | -30.82030 | 142.39105 | 36316 ft | 472 kts | 289° |
| 2026-04-21 01:02 | -30.79097 | 142.32275 | 36317 ft | 471 kts | 289° |
| 2026-04-21 01:03 | -30.76165 | 142.25456 | 36311 ft | 471 kts | 289° |
| 2026-04-21 01:03 | -30.73253 | 142.18698 | 36318 ft | 470 kts | 289° |
| 2026-04-21 01:04 | -30.70317 | 142.11896 | 36320 ft | 470 kts | 289° |
| 2026-04-21 01:04 | -30.67381 | 142.05107 | 36310 ft | 470 kts | 289° |
| 2026-04-21 01:05 | -30.64445 | 141.98329 | 36307 ft | 470 kts | 289° |
| 2026-04-21 01:05 | -30.61500 | 141.91544 | 36308 ft | 470 kts | 289° |
| 2026-04-21 01:06 | -30.58557 | 141.84775 | 36304 ft | 470 kts | 289° |
| 2026-04-21 01:06 | -30.55610 | 141.78008 | 36300 ft | 470 kts | 289° |
| 2026-04-21 01:07 | -30.52656 | 141.71239 | 36299 ft | 470 kts | 289° |
| 2026-04-21 01:07 | -30.49700 | 141.64476 | 36299 ft | 470 kts | 289° |
| 2026-04-21 01:08 | -30.46738 | 141.57713 | 36293 ft | 471 kts | 289° |
| 2026-04-21 01:08 | -30.43790 | 141.50992 | 36298 ft | 471 kts | 289° |
| 2026-04-21 01:09 | -30.40817 | 141.44227 | 36308 ft | 471 kts | 289° |
| 2026-04-21 01:09 | -30.37837 | 141.37458 | 36300 ft | 471 kts | 289° |
| 2026-04-21 01:10 | -30.34858 | 141.30701 | 36301 ft | 471 kts | 289° |
| 2026-04-21 01:10 | -30.31874 | 141.23948 | 36296 ft | 471 kts | 289° |
| 2026-04-21 01:11 | -30.28889 | 141.17207 | 36299 ft | 471 kts | 289° |
| 2026-04-21 01:11 | -30.25900 | 141.10466 | 36296 ft | 471 kts | 289° |
| 2026-04-21 01:12 | -30.22922 | 141.03763 | 36297 ft | 470 kts | 289° |
| 2026-04-21 01:12 | -30.19932 | 140.97043 | 36290 ft | 470 kts | 289° |
| 2026-04-21 01:13 | -30.16933 | 140.90317 | 36293 ft | 470 kts | 289° |
| 2026-04-21 01:13 | -30.13951 | 140.83640 | 36290 ft | 470 kts | 289° |
| 2026-04-21 01:14 | -30.08897 | 140.72348 | 36291 ft | 469 kts | 289° |
| 2026-04-21 01:15 | -30.05901 | 140.65672 | 36294 ft | 468 kts | 289° |
| 2026-04-21 01:15 | -30.02903 | 140.59001 | 36287 ft | 468 kts | 289° |
| 2026-04-21 01:16 | -29.99901 | 140.52334 | 36293 ft | 467 kts | 289° |
| 2026-04-21 01:16 | -29.96900 | 140.45680 | 36296 ft | 467 kts | 289° |
| 2026-04-21 01:17 | -29.93902 | 140.39045 | 36290 ft | 466 kts | 289° |
| 2026-04-21 01:17 | -29.90901 | 140.32414 | 36295 ft | 466 kts | 289° |
| 2026-04-21 01:18 | -29.87903 | 140.25799 | 36296 ft | 466 kts | 289° |
| 2026-04-21 01:18 | -29.84897 | 140.19180 | 36305 ft | 465 kts | 290° |
| 2026-04-21 01:19 | -29.81898 | 140.12588 | 36302 ft | 465 kts | 290° |
| 2026-04-21 01:19 | -29.78890 | 140.05986 | 36299 ft | 464 kts | 290° |
| 2026-04-21 01:20 | -29.75888 | 139.99408 | 36292 ft | 464 kts | 290° |
| 2026-04-21 01:20 | -29.72882 | 139.92834 | 36289 ft | 464 kts | 290° |
| 2026-04-21 01:21 | -29.69897 | 139.86316 | 36290 ft | 463 kts | 290° |
| 2026-04-21 01:21 | -29.66889 | 139.79759 | 36289 ft | 463 kts | 290° |
| 2026-04-21 01:22 | -29.63874 | 139.73210 | 36286 ft | 463 kts | 290° |
| 2026-04-21 01:22 | -29.60864 | 139.66666 | 36282 ft | 463 kts | 290° |
| 2026-04-21 01:23 | -29.57846 | 139.60117 | 36282 ft | 463 kts | 290° |
| 2026-04-21 01:23 | -29.54828 | 139.53581 | 36281 ft | 463 kts | 290° |
| 2026-04-21 01:24 | -29.51809 | 139.47055 | 36285 ft | 463 kts | 290° |
| 2026-04-21 01:24 | -29.48786 | 139.40532 | 36285 ft | 463 kts | 290° |
| 2026-04-21 01:25 | -29.45777 | 139.34049 | 36280 ft | 463 kts | 290° |
| 2026-04-21 01:25 | -29.42750 | 139.27538 | 36281 ft | 462 kts | 290° |
| 2026-04-21 01:26 | -29.39721 | 139.21034 | 36281 ft | 462 kts | 290° |
| 2026-04-21 01:26 | -29.36686 | 139.14528 | 36279 ft | 462 kts | 291° |
| 2026-04-21 01:27 | -29.33650 | 139.08030 | 36276 ft | 462 kts | 291° |
| 2026-04-21 01:27 | -29.30613 | 139.01540 | 36271 ft | 461 kts | 291° |
| 2026-04-21 01:28 | -29.27594 | 138.95100 | 36274 ft | 461 kts | 291° |
| 2026-04-21 01:28 | -29.24552 | 138.88620 | 36273 ft | 461 kts | 291° |
| 2026-04-21 01:29 | -29.21512 | 138.82157 | 36273 ft | 461 kts | 291° |
| 2026-04-21 01:29 | -29.18465 | 138.75689 | 36270 ft | 461 kts | 291° |
| 2026-04-21 01:30 | -29.15419 | 138.69232 | 36266 ft | 461 kts | 291° |
| 2026-04-21 01:30 | -29.12373 | 138.62785 | 36265 ft | 460 kts | 291° |
| 2026-04-21 01:31 | -29.09347 | 138.56393 | 36267 ft | 460 kts | 291° |
| 2026-04-21 01:31 | -29.06298 | 138.49961 | 36262 ft | 460 kts | 291° |
| 2026-04-21 01:32 | -29.03246 | 138.43533 | 36264 ft | 459 kts | 291° |
| 2026-04-21 01:32 | -29.00194 | 138.37116 | 36265 ft | 459 kts | 291° |
| 2026-04-21 01:33 | -28.97143 | 138.30709 | 36260 ft | 459 kts | 291° |
| 2026-04-21 01:33 | -28.94090 | 138.24310 | 36263 ft | 459 kts | 291° |
| 2026-04-21 01:34 | -28.91033 | 138.17913 | 36261 ft | 459 kts | 291° |
| 2026-04-21 01:34 | -28.87994 | 138.11562 | 36263 ft | 458 kts | 291° |
| 2026-04-21 01:35 | -28.84936 | 138.05184 | 36257 ft | 458 kts | 292° |
| 2026-04-21 01:35 | -28.81882 | 137.98821 | 36260 ft | 457 kts | 292° |
| 2026-04-21 01:36 | -28.78824 | 137.92463 | 36256 ft | 457 kts | 292° |
| 2026-04-21 01:36 | -28.75763 | 137.86107 | 36252 ft | 457 kts | 292° |
| 2026-04-21 01:37 | -28.72702 | 137.79761 | 36249 ft | 456 kts | 292° |
| 2026-04-21 01:37 | -28.69639 | 137.73421 | 36251 ft | 456 kts | 292° |
| 2026-04-21 01:38 | -28.66578 | 137.67094 | 36247 ft | 456 kts | 292° |
| 2026-04-21 01:38 | -28.63517 | 137.60778 | 36245 ft | 455 kts | 292° |
| 2026-04-21 01:39 | -28.60472 | 137.54503 | 36245 ft | 455 kts | 292° |
| 2026-04-21 01:39 | -28.57407 | 137.48197 | 36245 ft | 455 kts | 292° |
| 2026-04-21 01:40 | -28.54858 | 137.42961 | 36243 ft | 455 kts | 292° |
| 2026-04-21 01:40 | -28.51788 | 137.36663 | 36243 ft | 455 kts | 292° |
| 2026-04-21 01:41 | -28.48718 | 137.30373 | 36244 ft | 455 kts | 292° |
| 2026-04-21 01:41 | -28.45644 | 137.24086 | 36247 ft | 455 kts | 292° |
| 2026-04-21 01:42 | -28.42567 | 137.17803 | 36246 ft | 454 kts | 292° |
| 2026-04-21 01:42 | -28.39493 | 137.11534 | 36247 ft | 454 kts | 292° |
| 2026-04-21 01:43 | -28.36430 | 137.05298 | 36242 ft | 454 kts | 293° |
| 2026-04-21 01:43 | -28.33351 | 136.99039 | 36237 ft | 454 kts | 293° |
| 2026-04-21 01:44 | -28.30272 | 136.92790 | 36237 ft | 453 kts | 293° |
| 2026-04-21 01:44 | -28.27192 | 136.86547 | 36254 ft | 453 kts | 293° |
| 2026-04-21 01:45 | -28.24115 | 136.80315 | 36244 ft | 453 kts | 293° |
| 2026-04-21 01:45 | -28.21037 | 136.74089 | 36243 ft | 452 kts | 293° |
| 2026-04-21 01:46 | -28.17943 | 136.67879 | 36240 ft | 452 kts | 293° |
| 2026-04-21 01:46 | -28.14873 | 136.61720 | 36243 ft | 451 kts | 293° |
| 2026-04-21 01:47 | -28.08592 | 136.49137 | 36236 ft | 451 kts | 293° |
| 2026-04-21 01:48 | -28.05505 | 136.42965 | 36235 ft | 450 kts | 293° |
| 2026-04-21 01:48 | -28.02416 | 136.36799 | 36229 ft | 450 kts | 293° |
| 2026-04-21 01:49 | -27.99328 | 136.30646 | 36232 ft | 449 kts | 293° |
| 2026-04-21 01:49 | -27.96241 | 136.24502 | 36230 ft | 449 kts | 293° |
| 2026-04-21 01:50 | -27.93158 | 136.18374 | 36230 ft | 448 kts | 293° |
| 2026-04-21 01:50 | -27.90072 | 136.12251 | 36229 ft | 448 kts | 293° |
| 2026-04-21 01:51 | -27.87008 | 136.06179 | 36227 ft | 447 kts | 293° |
| 2026-04-21 01:51 | -27.83907 | 136.00044 | 36222 ft | 446 kts | 293° |
| 2026-04-21 01:52 | -27.79304 | 135.90952 | 36224 ft | 446 kts | 293° |
| 2026-04-21 01:53 | -27.76223 | 135.84878 | 36222 ft | 446 kts | 294° |
| 2026-04-21 01:53 | -27.73141 | 135.78808 | 36222 ft | 445 kts | 294° |
| 2026-04-21 01:54 | -27.70059 | 135.72750 | 36218 ft | 445 kts | 294° |
| 2026-04-21 01:54 | -27.66978 | 135.66700 | 36215 ft | 445 kts | 294° |
| 2026-04-21 01:55 | -27.63891 | 135.60647 | 36214 ft | 445 kts | 294° |
| 2026-04-21 01:55 | -27.60807 | 135.54610 | 36217 ft | 444 kts | 294° |
| 2026-04-21 01:56 | -27.57713 | 135.48563 | 36211 ft | 444 kts | 294° |
| 2026-04-21 01:56 | -27.54642 | 135.42562 | 36216 ft | 444 kts | 294° |
| 2026-04-21 01:57 | -27.51579 | 135.36529 | 36213 ft | 443 kts | 294° |
| 2026-04-21 01:57 | -27.48517 | 135.30490 | 36213 ft | 443 kts | 294° |
| 2026-04-21 01:58 | -27.45454 | 135.24462 | 36212 ft | 443 kts | 294° |
| 2026-04-21 01:58 | -27.42390 | 135.18446 | 36212 ft | 443 kts | 294° |
| 2026-04-21 01:59 | -27.39343 | 135.12473 | 36213 ft | 442 kts | 294° |
| 2026-04-21 01:59 | -27.36278 | 135.06472 | 36215 ft | 442 kts | 294° |
| 2026-04-21 02:00 | -27.33208 | 135.00470 | 36213 ft | 442 kts | 294° |
| 2026-04-21 02:00 | -27.30139 | 134.94479 | 36212 ft | 442 kts | 294° |
| 2026-04-21 02:01 | -27.27070 | 134.88495 | 36213 ft | 442 kts | 294° |
| 2026-04-21 02:01 | -27.23995 | 134.82510 | 36208 ft | 442 kts | 294° |
| 2026-04-21 02:02 | -27.20922 | 134.76536 | 36207 ft | 442 kts | 294° |
| 2026-04-21 02:02 | -27.17866 | 134.70603 | 36201 ft | 442 kts | 294° |
| 2026-04-21 02:03 | -27.14784 | 134.64626 | 36208 ft | 442 kts | 295° |
| 2026-04-21 02:03 | -27.11699 | 134.58654 | 36208 ft | 442 kts | 295° |
| 2026-04-21 02:04 | -27.08608 | 134.52677 | 36215 ft | 442 kts | 295° |
| 2026-04-21 02:04 | -27.05513 | 134.46702 | 36212 ft | 443 kts | 295° |
| 2026-04-21 02:05 | -27.02413 | 134.40724 | 36213 ft | 444 kts | 295° |
| 2026-04-21 02:05 | -26.99321 | 134.34769 | 36230 ft | 444 kts | 295° |
| 2026-04-21 02:06 | -26.96210 | 134.28788 | 36221 ft | 444 kts | 295° |
| 2026-04-21 02:06 | -26.93093 | 134.22802 | 36207 ft | 444 kts | 295° |
| 2026-04-21 02:07 | -26.89979 | 134.16831 | 36198 ft | 444 kts | 295° |
| 2026-04-21 02:07 | -26.86864 | 134.10865 | 36203 ft | 443 kts | 295° |
| 2026-04-21 02:08 | -26.83749 | 134.04909 | 36193 ft | 443 kts | 295° |
| 2026-04-21 02:08 | -26.80649 | 133.98986 | 36214 ft | 443 kts | 295° |
| 2026-04-21 02:09 | -26.77533 | 133.93043 | 36214 ft | 443 kts | 295° |
| 2026-04-21 02:09 | -26.74410 | 133.87094 | 36209 ft | 443 kts | 295° |
| 2026-04-21 02:10 | -26.71289 | 133.81157 | 36202 ft | 443 kts | 296° |
| 2026-04-21 02:10 | -26.68158 | 133.75210 | 36202 ft | 443 kts | 296° |
| 2026-04-21 02:11 | -26.65029 | 133.69274 | 36203 ft | 443 kts | 296° |
| 2026-04-21 02:11 | -26.61895 | 133.63336 | 36204 ft | 443 kts | 296° |
| 2026-04-21 02:12 | -26.58757 | 133.57398 | 36204 ft | 443 kts | 296° |
| 2026-04-21 02:12 | -26.55619 | 133.51468 | 36204 ft | 443 kts | 296° |
| 2026-04-21 02:13 | -26.52498 | 133.45578 | 36202 ft | 443 kts | 296° |
| 2026-04-21 02:13 | -26.49352 | 133.39650 | 36201 ft | 443 kts | 296° |
| 2026-04-21 02:14 | -26.46208 | 133.33733 | 36203 ft | 443 kts | 296° |
| 2026-04-21 02:14 | -26.43062 | 133.27819 | 36201 ft | 443 kts | 296° |
| 2026-04-21 02:15 | -26.39930 | 133.21941 | 36199 ft | 443 kts | 296° |
| 2026-04-21 02:15 | -26.36786 | 133.16047 | 36199 ft | 442 kts | 296° |
| 2026-04-21 02:16 | -26.33638 | 133.10152 | 36199 ft | 442 kts | 296° |
| 2026-04-21 02:16 | -26.30483 | 133.04253 | 36191 ft | 442 kts | 296° |
| 2026-04-21 02:17 | -26.27332 | 132.98368 | 36191 ft | 442 kts | 296° |
| 2026-04-21 02:17 | -26.24183 | 132.92493 | 36194 ft | 442 kts | 296° |
| 2026-04-21 02:18 | -26.21025 | 132.86607 | 36195 ft | 442 kts | 296° |
| 2026-04-21 02:18 | -26.17888 | 132.80779 | 36193 ft | 442 kts | 296° |
| 2026-04-21 02:19 | -26.14728 | 132.74913 | 36191 ft | 442 kts | 296° |
| 2026-04-21 02:19 | -26.11568 | 132.69050 | 36189 ft | 442 kts | 297° |
| 2026-04-21 02:20 | -26.08943 | 132.64186 | 36190 ft | 442 kts | 297° |
| 2026-04-21 02:20 | -26.05774 | 132.58322 | 36192 ft | 442 kts | 297° |
| 2026-04-21 02:21 | -26.02605 | 132.52465 | 36190 ft | 442 kts | 297° |
| 2026-04-21 02:21 | -25.99436 | 132.46616 | 36191 ft | 442 kts | 297° |
| 2026-04-21 02:22 | -25.96264 | 132.40769 | 36191 ft | 442 kts | 297° |
| 2026-04-21 02:22 | -25.93087 | 132.34920 | 36188 ft | 442 kts | 297° |
| 2026-04-21 02:23 | -25.89907 | 132.29074 | 36189 ft | 442 kts | 297° |
| 2026-04-21 02:23 | -25.86744 | 132.23265 | 36188 ft | 442 kts | 297° |
| 2026-04-21 02:24 | -25.83557 | 132.17420 | 36192 ft | 442 kts | 297° |
| 2026-04-21 02:24 | -25.80371 | 132.11584 | 36188 ft | 442 kts | 297° |
| 2026-04-21 02:25 | -25.77183 | 132.05752 | 36184 ft | 442 kts | 297° |
| 2026-04-21 02:25 | -25.73988 | 131.99915 | 36182 ft | 442 kts | 297° |
| 2026-04-21 02:26 | -25.70797 | 131.94091 | 36183 ft | 442 kts | 297° |
| 2026-04-21 02:26 | -25.67604 | 131.88272 | 36184 ft | 442 kts | 297° |
| 2026-04-21 02:27 | -25.64404 | 131.82448 | 36181 ft | 442 kts | 297° |
| 2026-04-21 02:27 | -25.61229 | 131.76675 | 36180 ft | 442 kts | 297° |
| 2026-04-21 02:28 | -25.58025 | 131.70859 | 36177 ft | 442 kts | 297° |
| 2026-04-21 02:28 | -25.54821 | 131.65049 | 36176 ft | 442 kts | 297° |
| 2026-04-21 02:29 | -25.51614 | 131.59240 | 36173 ft | 442 kts | 297° |
| 2026-04-21 02:29 | -25.48399 | 131.53426 | 36176 ft | 442 kts | 297° |
| 2026-04-21 02:30 | -25.45182 | 131.47613 | 36178 ft | 443 kts | 297° |
| 2026-04-21 02:30 | -25.41964 | 131.41808 | 36178 ft | 443 kts | 298° |
| 2026-04-21 02:31 | -25.38760 | 131.36033 | 36174 ft | 443 kts | 298° |
| 2026-04-21 02:31 | -25.35536 | 131.30231 | 36175 ft | 443 kts | 298° |
| 2026-04-21 02:32 | -25.32310 | 131.24432 | 36174 ft | 442 kts | 298° |
| 2026-04-21 02:32 | -25.29082 | 131.18636 | 36170 ft | 442 kts | 298° |
| 2026-04-21 02:33 | -25.25856 | 131.12851 | 36169 ft | 442 kts | 298° |
| 2026-04-21 02:33 | -25.22629 | 131.07072 | 36167 ft | 442 kts | 298° |
| 2026-04-21 02:34 | -25.19400 | 131.01295 | 36161 ft | 442 kts | 298° |
| 2026-04-21 02:34 | -25.15928 | 130.95685 | 36160 ft | 445 kts | 305° |
| 2026-04-21 02:35 | -25.11948 | 130.90482 | 36158 ft | 446 kts | 306° |
| 2026-04-21 02:35 | -25.07969 | 130.85235 | 36155 ft | 446 kts | 306° |
| 2026-04-21 02:36 | -25.03979 | 130.79974 | 36157 ft | 446 kts | 306° |
| 2026-04-21 02:36 | -24.99987 | 130.74723 | 36160 ft | 447 kts | 306° |
| 2026-04-21 02:37 | -24.95992 | 130.69477 | 36160 ft | 447 kts | 306° |
| 2026-04-21 02:37 | -24.92014 | 130.64258 | 36156 ft | 447 kts | 306° |
| 2026-04-21 02:38 | -24.88008 | 130.59009 | 36157 ft | 447 kts | 306° |
| 2026-04-21 02:38 | -24.83998 | 130.53760 | 36157 ft | 448 kts | 306° |
| 2026-04-21 02:39 | -24.79989 | 130.48519 | 36156 ft | 448 kts | 306° |
| 2026-04-21 02:39 | -24.75973 | 130.43273 | 36154 ft | 448 kts | 306° |
| 2026-04-21 02:40 | -24.71952 | 130.38028 | 36151 ft | 448 kts | 306° |
| 2026-04-21 02:40 | -24.67957 | 130.32821 | 36145 ft | 448 kts | 306° |
| 2026-04-21 02:41 | -24.63936 | 130.27587 | 36148 ft | 448 kts | 306° |
| 2026-04-21 02:41 | -24.59917 | 130.22360 | 36142 ft | 448 kts | 306° |
| 2026-04-21 02:42 | -24.55886 | 130.17125 | 36145 ft | 448 kts | 306° |
| 2026-04-21 02:42 | -24.51859 | 130.11900 | 36142 ft | 448 kts | 306° |
| 2026-04-21 02:43 | -24.47820 | 130.06664 | 36142 ft | 449 kts | 306° |
| 2026-04-21 02:43 | -24.43785 | 130.01440 | 36140 ft | 449 kts | 307° |
| 2026-04-21 02:44 | -24.39741 | 129.96210 | 36140 ft | 449 kts | 307° |
| 2026-04-21 02:44 | -24.35697 | 129.90987 | 36133 ft | 449 kts | 307° |
| 2026-04-21 02:45 | -24.31670 | 129.85789 | 36135 ft | 449 kts | 307° |
| 2026-04-21 02:45 | -24.27616 | 129.80563 | 36132 ft | 450 kts | 307° |
| 2026-04-21 02:46 | -24.23561 | 129.75341 | 36136 ft | 450 kts | 307° |
| 2026-04-21 02:46 | -24.19504 | 129.70122 | 36132 ft | 450 kts | 307° |
| 2026-04-21 02:47 | -24.15444 | 129.64906 | 36131 ft | 450 kts | 307° |
| 2026-04-21 02:47 | -24.11378 | 129.59688 | 36125 ft | 450 kts | 307° |
| 2026-04-21 02:48 | -24.07314 | 129.54476 | 36125 ft | 450 kts | 307° |
| 2026-04-21 02:48 | -24.03244 | 129.49264 | 36125 ft | 450 kts | 307° |
| 2026-04-21 02:49 | -23.99178 | 129.44060 | 36123 ft | 450 kts | 307° |
| 2026-04-21 02:49 | -23.95133 | 129.38891 | 36120 ft | 450 kts | 307° |
| 2026-04-21 02:50 | -23.91054 | 129.33683 | 36120 ft | 450 kts | 307° |
| 2026-04-21 02:50 | -23.86975 | 129.28480 | 36119 ft | 451 kts | 307° |
| 2026-04-21 02:51 | -23.82893 | 129.23280 | 36120 ft | 451 kts | 307° |
| 2026-04-21 02:51 | -23.78807 | 129.18079 | 36115 ft | 451 kts | 307° |
| 2026-04-21 02:52 | -23.74714 | 129.12876 | 36117 ft | 451 kts | 307° |
| 2026-04-21 02:52 | -23.70612 | 129.07666 | 36115 ft | 452 kts | 307° |
| 2026-04-21 02:53 | -23.66517 | 129.02471 | 36115 ft | 452 kts | 308° |
| 2026-04-21 02:53 | -23.62419 | 128.97277 | 36116 ft | 452 kts | 308° |
| 2026-04-21 02:54 | -23.58315 | 128.92082 | 36110 ft | 452 kts | 308° |
| 2026-04-21 02:54 | -23.54211 | 128.86891 | 36106 ft | 452 kts | 308° |
| 2026-04-21 02:55 | -23.50102 | 128.81699 | 36104 ft | 452 kts | 308° |
| 2026-04-21 02:55 | -23.46018 | 128.76546 | 36116 ft | 452 kts | 308° |
| 2026-04-21 02:56 | -23.41902 | 128.71356 | 36109 ft | 453 kts | 308° |
| 2026-04-21 02:56 | -23.35718 | 128.63570 | 36097 ft | 453 kts | 308° |
| 2026-04-21 02:57 | -23.31599 | 128.58390 | 36092 ft | 453 kts | 308° |
| 2026-04-21 02:57 | -23.27474 | 128.53208 | 36089 ft | 453 kts | 308° |
| 2026-04-21 02:58 | -23.23347 | 128.48025 | 36091 ft | 453 kts | 308° |
| 2026-04-21 02:58 | -23.19210 | 128.42844 | 36092 ft | 453 kts | 308° |
| 2026-04-21 02:59 | -23.15064 | 128.37668 | 36090 ft | 454 kts | 308° |
| 2026-04-21 02:59 | -23.10950 | 128.32529 | 36089 ft | 454 kts | 308° |
| 2026-04-21 03:00 | -23.06806 | 128.27354 | 36095 ft | 454 kts | 308° |
| 2026-04-21 03:00 | -23.02659 | 128.22184 | 36090 ft | 454 kts | 308° |
| 2026-04-21 03:01 | -22.98507 | 128.17013 | 36099 ft | 454 kts | 308° |
| 2026-04-21 03:01 | -22.94354 | 128.11846 | 36101 ft | 454 kts | 308° |
| 2026-04-21 03:02 | -22.90196 | 128.06677 | 36098 ft | 454 kts | 309° |
| 2026-04-21 03:02 | -22.86031 | 128.01506 | 36087 ft | 454 kts | 309° |
| 2026-04-21 03:03 | -22.81869 | 127.96345 | 36091 ft | 454 kts | 309° |
| 2026-04-21 03:03 | -22.77709 | 127.91190 | 36094 ft | 454 kts | 309° |
| 2026-04-21 03:04 | -22.73548 | 127.86039 | 36091 ft | 454 kts | 309° |
| 2026-04-21 03:04 | -22.69378 | 127.80882 | 36075 ft | 455 kts | 309° |
| 2026-04-21 03:05 | -22.65237 | 127.75767 | 36086 ft | 455 kts | 309° |
| 2026-04-21 03:05 | -22.61064 | 127.70617 | 36087 ft | 455 kts | 309° |
| 2026-04-21 03:06 | -22.56886 | 127.65466 | 36084 ft | 455 kts | 309° |
| 2026-04-21 03:06 | -22.53381 | 127.61148 | 36084 ft | 456 kts | 309° |
| 2026-04-21 03:07 | -22.49191 | 127.55992 | 36083 ft | 456 kts | 309° |
| 2026-04-21 03:07 | -22.45002 | 127.50842 | 36082 ft | 456 kts | 309° |
| 2026-04-21 03:08 | -22.41118 | 127.46072 | 36080 ft | 459 kts | 309° |
| 2026-04-21 03:08 | -22.36817 | 127.40790 | 36073 ft | 477 kts | 309° |
| 2026-04-21 03:09 | -22.32344 | 127.35305 | 36067 ft | 495 kts | 309° |
| 2026-04-21 03:09 | -22.27750 | 127.29680 | 36076 ft | 511 kts | 309° |
| 2026-04-21 03:10 | -22.25408 | 127.26824 | 36853 ft | 498 kts | 310° |
| 2026-04-21 03:10 | -22.23146 | 127.24084 | 38096 ft | 482 kts | 310° |
| 2026-04-21 03:10 | -22.20929 | 127.21419 | 38934 ft | 473 kts | 310° |
| 2026-04-21 03:10 | -22.18738 | 127.18802 | 39417 ft | 469 kts | 310° |
| 2026-04-21 03:11 | -22.16547 | 127.16202 | 39824 ft | 467 kts | 310° |
| 2026-04-21 03:11 | -22.14359 | 127.13621 | 40169 ft | 466 kts | 311° |
| 2026-04-21 03:11 | -22.12164 | 127.11047 | 40490 ft | 465 kts | 311° |
| 2026-04-21 03:11 | -22.09970 | 127.08489 | 40825 ft | 464 kts | 311° |
| 2026-04-21 03:12 | -22.07775 | 127.05943 | 41168 ft | 463 kts | 311° |
| 2026-04-21 03:12 | -22.05578 | 127.03410 | 41472 ft | 462 kts | 311° |
| 2026-04-21 03:12 | -22.03377 | 127.00887 | 41799 ft | 461 kts | 311° |
| 2026-04-21 03:12 | -22.01175 | 126.98374 | 42116 ft | 460 kts | 311° |
| 2026-04-21 03:13 | -21.99003 | 126.95910 | 42419 ft | 459 kts | 311° |
| 2026-04-21 03:13 | -21.96802 | 126.93425 | 42739 ft | 458 kts | 311° |
| 2026-04-21 03:13 | -21.94599 | 126.90950 | 43019 ft | 457 kts | 311° |
| 2026-04-21 03:13 | -21.92396 | 126.88487 | 43319 ft | 456 kts | 312° |
| 2026-04-21 03:14 | -21.90189 | 126.86031 | 43609 ft | 456 kts | 312° |
| 2026-04-21 03:14 | -21.87982 | 126.83586 | 43877 ft | 455 kts | 312° |
| 2026-04-21 03:14 | -21.85771 | 126.81148 | 44134 ft | 454 kts | 312° |
| 2026-04-21 03:14 | -21.83560 | 126.78720 | 44414 ft | 453 kts | 312° |
| 2026-04-21 03:15 | -21.81348 | 126.76303 | 44630 ft | 453 kts | 312° |
| 2026-04-21 03:15 | -21.79132 | 126.73892 | 44836 ft | 453 kts | 312° |
| 2026-04-21 03:15 | -21.76915 | 126.71490 | 45003 ft | 453 kts | 313° |
| 2026-04-21 03:15 | -21.74687 | 126.69088 | 45155 ft | 453 kts | 313° |
| 2026-04-21 03:16 | -21.72459 | 126.66697 | 45295 ft | 453 kts | 313° |
| 2026-04-21 03:16 | -21.70249 | 126.64335 | 45461 ft | 453 kts | 313° |
| 2026-04-21 03:16 | -21.68011 | 126.61956 | 45573 ft | 453 kts | 313° |
| 2026-04-21 03:16 | -21.65775 | 126.59588 | 45721 ft | 453 kts | 313° |
| 2026-04-21 03:17 | -21.63513 | 126.57204 | 45847 ft | 453 kts | 313° |
| 2026-04-21 03:17 | -21.61258 | 126.54839 | 45959 ft | 453 kts | 313° |
| 2026-04-21 03:17 | -21.58993 | 126.52474 | 46093 ft | 453 kts | 314° |
| 2026-04-21 03:17 | -21.56728 | 126.50120 | 46215 ft | 453 kts | 314° |
| 2026-04-21 03:18 | -21.54455 | 126.47769 | 46331 ft | 454 kts | 314° |
| 2026-04-21 03:18 | -21.52177 | 126.45423 | 46442 ft | 454 kts | 314° |
| 2026-04-21 03:18 | -21.47868 | 126.41016 | 46643 ft | 454 kts | 314° |
| 2026-04-21 03:19 | -21.43296 | 126.36345 | 46833 ft | 454 kts | 313° |
| 2026-04-21 03:19 | -21.38950 | 126.31441 | 46968 ft | 453 kts | 308° |
| 2026-04-21 03:20 | -21.35241 | 126.26003 | 47069 ft | 451 kts | 299° |
| 2026-04-21 03:20 | -21.32694 | 126.19929 | 47165 ft | 450 kts | 287° |
| 2026-04-21 03:21 | -21.31788 | 126.16722 | 47353 ft | 448 kts | 288° |
| 2026-04-21 03:21 | -21.30879 | 126.13532 | 47512 ft | 446 kts | 288° |
| 2026-04-21 03:21 | -21.29966 | 126.10351 | 47622 ft | 445 kts | 288° |
| 2026-04-21 03:21 | -21.29047 | 126.07179 | 47703 ft | 445 kts | 288° |
| 2026-04-21 03:22 | -21.27178 | 126.00882 | 47717 ft | 436 kts | 291° |
| 2026-04-21 03:22 | -21.25791 | 125.97992 | 47127 ft | 440 kts | 302° |
| 2026-04-21 03:22 | -21.23823 | 125.95462 | 46559 ft | 444 kts | 314° |
| 2026-04-21 03:23 | -21.21369 | 125.93449 | 46151 ft | 447 kts | 326° |
| 2026-04-21 03:23 | -21.18548 | 125.92037 | 45764 ft | 450 kts | 336° |
| 2026-04-21 03:23 | -21.15591 | 125.90967 | 45318 ft | 446 kts | 332° |
| 2026-04-21 03:23 | -21.12828 | 125.89492 | 44536 ft | 443 kts | 322° |
| 2026-04-21 03:24 | -21.10362 | 125.87513 | 43513 ft | 444 kts | 315° |
| 2026-04-21 03:24 | -21.08152 | 125.85261 | 42678 ft | 445 kts | 311° |
| 2026-04-21 03:24 | -21.06026 | 125.82835 | 41928 ft | 446 kts | 309° |
| 2026-04-21 03:24 | -21.03963 | 125.80378 | 41429 ft | 442 kts | 309° |
| 2026-04-21 03:25 | -21.01924 | 125.77930 | 40955 ft | 438 kts | 309° |
| 2026-04-21 03:25 | -20.99897 | 125.75499 | 40368 ft | 438 kts | 309° |
| 2026-04-21 03:25 | -20.97861 | 125.73065 | 39667 ft | 440 kts | 309° |
| 2026-04-21 03:25 | -20.95810 | 125.70621 | 38990 ft | 443 kts | 309° |
| 2026-04-21 03:26 | -20.93742 | 125.68162 | 38301 ft | 444 kts | 309° |
| 2026-04-21 03:26 | -20.91682 | 125.65716 | 38074 ft | 441 kts | 309° |
| 2026-04-21 03:26 | -20.87510 | 125.60751 | 38024 ft | 453 kts | 309° |
| 2026-04-21 03:27 | -20.83335 | 125.55777 | 38020 ft | 452 kts | 309° |
| 2026-04-21 03:27 | -20.79136 | 125.50775 | 38019 ft | 452 kts | 309° |
| 2026-04-21 03:28 | -20.74924 | 125.45765 | 38021 ft | 452 kts | 309° |
| 2026-04-21 03:28 | -20.70716 | 125.40764 | 38018 ft | 452 kts | 309° |
| 2026-04-21 03:29 | -20.66504 | 125.35764 | 38014 ft | 452 kts | 309° |
| 2026-04-21 03:29 | -20.62321 | 125.30803 | 38012 ft | 452 kts | 309° |
| 2026-04-21 03:30 | -20.58102 | 125.25803 | 38014 ft | 453 kts | 309° |
| 2026-04-21 03:30 | -20.53884 | 125.20808 | 38011 ft | 453 kts | 309° |
| 2026-04-21 03:31 | -20.49666 | 125.15819 | 38010 ft | 453 kts | 309° |
| 2026-04-21 03:31 | -20.45463 | 125.10851 | 38010 ft | 453 kts | 309° |
| 2026-04-21 03:32 | -20.41244 | 125.05869 | 38004 ft | 453 kts | 309° |
| 2026-04-21 03:32 | -20.37018 | 125.00883 | 38004 ft | 453 kts | 309° |
| 2026-04-21 03:33 | -20.32786 | 124.95894 | 38006 ft | 453 kts | 309° |
| 2026-04-21 03:33 | -20.28560 | 124.90917 | 38004 ft | 453 kts | 310° |
| 2026-04-21 03:34 | -20.24325 | 124.85934 | 38002 ft | 454 kts | 310° |
| 2026-04-21 03:34 | -20.20080 | 124.80942 | 38004 ft | 454 kts | 309° |
| 2026-04-21 03:35 | -20.15867 | 124.75994 | 38001 ft | 454 kts | 309° |
| 2026-04-21 03:35 | -20.11620 | 124.71009 | 38002 ft | 454 kts | 310° |
| 2026-04-21 03:36 | -20.07375 | 124.66031 | 37999 ft | 454 kts | 310° |
| 2026-04-21 03:36 | -20.03131 | 124.61059 | 37999 ft | 454 kts | 310° |
| 2026-04-21 03:37 | -19.98907 | 124.56115 | 37997 ft | 454 kts | 310° |
| 2026-04-21 03:37 | -19.94657 | 124.51144 | 37995 ft | 454 kts | 310° |
| 2026-04-21 03:38 | -19.90415 | 124.46187 | 37993 ft | 453 kts | 310° |
| 2026-04-21 03:38 | -19.86167 | 124.41227 | 37988 ft | 453 kts | 310° |
| 2026-04-21 03:39 | -19.81925 | 124.36278 | 37985 ft | 453 kts | 310° |
| 2026-04-21 03:39 | -19.77674 | 124.31324 | 37978 ft | 453 kts | 310° |
| 2026-04-21 03:40 | -19.73425 | 124.26376 | 37986 ft | 453 kts | 310° |
| 2026-04-21 03:40 | -19.69170 | 124.21425 | 38000 ft | 453 kts | 310° |
| 2026-04-21 03:41 | -19.64942 | 124.16509 | 37992 ft | 453 kts | 310° |
| 2026-04-21 03:41 | -19.60967 | 124.11892 | 37966 ft | 453 kts | 309° |
| 2026-04-21 03:42 | -19.56709 | 124.06949 | 37963 ft | 453 kts | 309° |
| 2026-04-21 03:42 | -19.52484 | 124.02049 | 37976 ft | 453 kts | 309° |
| 2026-04-21 03:43 | -19.48227 | 123.97116 | 37982 ft | 453 kts | 309° |
| 2026-04-21 03:43 | -19.43973 | 123.92191 | 37979 ft | 453 kts | 310° |
| 2026-04-21 03:44 | -19.39711 | 123.87261 | 37977 ft | 453 kts | 310° |
| 2026-04-21 03:44 | -19.35449 | 123.82335 | 37962 ft | 453 kts | 310° |
| 2026-04-21 03:45 | -19.31187 | 123.77413 | 37976 ft | 453 kts | 310° |
| 2026-04-21 03:45 | -19.26922 | 123.72491 | 37959 ft | 453 kts | 310° |
| 2026-04-21 03:46 | -19.22679 | 123.67599 | 37963 ft | 453 kts | 310° |
| 2026-04-21 03:46 | -19.18414 | 123.62686 | 37966 ft | 453 kts | 310° |
| 2026-04-21 03:47 | -19.14460 | 123.58134 | 37967 ft | 453 kts | 310° |
| 2026-04-21 03:47 | -19.10197 | 123.53231 | 37957 ft | 453 kts | 310° |
| 2026-04-21 03:48 | -19.05950 | 123.48351 | 37954 ft | 453 kts | 310° |
| 2026-04-21 03:48 | -19.01680 | 123.43447 | 37961 ft | 453 kts | 310° |
| 2026-04-21 03:49 | -18.97398 | 123.38533 | 37952 ft | 454 kts | 310° |
| 2026-04-21 03:49 | -18.93120 | 123.33626 | 37962 ft | 454 kts | 310° |
| 2026-04-21 03:50 | -18.88816 | 123.28743 | 37964 ft | 454 kts | 310° |
| 2026-04-21 03:50 | -18.84490 | 123.23887 | 37954 ft | 454 kts | 310° |
| 2026-04-21 03:51 | -18.80164 | 123.19024 | 37961 ft | 454 kts | 310° |
| 2026-04-21 03:51 | -18.75837 | 123.14158 | 37962 ft | 454 kts | 310° |
| 2026-04-21 03:52 | -18.71507 | 123.09292 | 37949 ft | 454 kts | 310° |
| 2026-04-21 03:52 | -18.67201 | 123.04457 | 37956 ft | 455 kts | 310° |
| 2026-04-21 03:53 | -18.62868 | 122.99595 | 37942 ft | 455 kts | 311° |
| 2026-04-21 03:53 | -18.58531 | 122.94733 | 37952 ft | 455 kts | 311° |
| 2026-04-21 03:54 | -18.54183 | 122.89863 | 37945 ft | 455 kts | 311° |
| 2026-04-21 03:54 | -18.49836 | 122.84998 | 37947 ft | 456 kts | 311° |
| 2026-04-21 03:55 | -18.46222 | 122.80955 | 37950 ft | 456 kts | 311° |
| 2026-04-21 03:55 | -18.41156 | 122.75294 | 37947 ft | 456 kts | 311° |
| 2026-04-21 03:56 | -18.37508 | 122.71220 | 37947 ft | 456 kts | 311° |
| 2026-04-21 03:56 | -18.33153 | 122.66360 | 37944 ft | 457 kts | 311° |
| 2026-04-21 03:57 | -18.28815 | 122.61523 | 37946 ft | 457 kts | 311° |
| 2026-04-21 03:57 | -18.24448 | 122.56657 | 37937 ft | 457 kts | 311° |
| 2026-04-21 03:58 | -18.22224 | 122.54181 | 37940 ft | 457 kts | 311° |
| 2026-04-21 03:58 | -18.17844 | 122.49306 | 37942 ft | 457 kts | 311° |
| 2026-04-21 03:59 | -18.13472 | 122.44446 | 37939 ft | 457 kts | 311° |
| 2026-04-21 04:00 | -18.06945 | 122.37194 | 37935 ft | 457 kts | 311° |
| 2026-04-21 04:00 | -18.02568 | 122.32337 | 37939 ft | 457 kts | 311° |
| 2026-04-21 04:01 | -17.98192 | 122.27484 | 37938 ft | 457 kts | 311° |
| 2026-04-21 04:01 | -17.94221 | 122.22289 | 37939 ft | 455 kts | 303° |
| 2026-04-21 04:02 | -17.91056 | 122.16549 | 37939 ft | 454 kts | 297° |
| 2026-04-21 04:02 | -17.88073 | 122.10687 | 37935 ft | 454 kts | 297° |
| 2026-04-21 04:03 | -17.85078 | 122.04834 | 37951 ft | 455 kts | 297° |
| 2026-04-21 04:03 | -17.82108 | 121.99026 | 37945 ft | 454 kts | 297° |
| 2026-04-21 04:04 | -17.79115 | 121.93178 | 37943 ft | 454 kts | 297° |
| 2026-04-21 04:04 | -17.76121 | 121.87333 | 37943 ft | 454 kts | 297° |
| 2026-04-21 04:05 | -17.73121 | 121.81484 | 37945 ft | 454 kts | 297° |
| 2026-04-21 04:05 | -17.70121 | 121.75641 | 37940 ft | 455 kts | 297° |
| 2026-04-21 04:06 | -17.67123 | 121.69808 | 37933 ft | 455 kts | 297° |
| 2026-04-21 04:06 | -17.64136 | 121.63999 | 37942 ft | 455 kts | 297° |
| 2026-04-21 04:07 | -17.61130 | 121.58161 | 37945 ft | 455 kts | 298° |
| 2026-04-21 04:07 | -17.58122 | 121.52323 | 37938 ft | 455 kts | 298° |
| 2026-04-21 04:08 | -17.55113 | 121.46489 | 37947 ft | 455 kts | 298° |
| 2026-04-21 04:08 | -17.52106 | 121.40664 | 37944 ft | 455 kts | 298° |
| 2026-04-21 04:09 | -17.49095 | 121.34835 | 37945 ft | 455 kts | 298° |
| 2026-04-21 04:09 | -17.46083 | 121.29010 | 37940 ft | 455 kts | 298° |
| 2026-04-21 04:10 | -17.43068 | 121.23185 | 37942 ft | 455 kts | 298° |
| 2026-04-21 04:10 | -17.40053 | 121.17365 | 37947 ft | 455 kts | 298° |
| 2026-04-21 04:11 | -17.37035 | 121.11544 | 37952 ft | 455 kts | 298° |
| 2026-04-21 04:11 | -17.34032 | 121.05758 | 37943 ft | 455 kts | 298° |
| 2026-04-21 04:12 | -17.31006 | 120.99932 | 37948 ft | 455 kts | 298° |
| 2026-04-21 04:12 | -17.27979 | 120.94111 | 37944 ft | 455 kts | 298° |
| 2026-04-21 04:13 | -17.24946 | 120.88281 | 37941 ft | 455 kts | 298° |
| 2026-04-21 04:13 | -17.21913 | 120.82457 | 37939 ft | 456 kts | 298° |
| 2026-04-21 04:14 | -17.18879 | 120.76636 | 37944 ft | 456 kts | 298° |
| 2026-04-21 04:14 | -17.15837 | 120.70805 | 37939 ft | 456 kts | 298° |
| 2026-04-21 04:15 | -17.12814 | 120.65017 | 37941 ft | 457 kts | 298° |
| 2026-04-21 04:15 | -17.09753 | 120.59160 | 37947 ft | 457 kts | 298° |
| 2026-04-21 04:16 | -17.06722 | 120.53365 | 37943 ft | 457 kts | 298° |
| 2026-04-21 04:16 | -17.03667 | 120.47531 | 37942 ft | 457 kts | 298° |
| 2026-04-21 04:17 | -17.00609 | 120.41694 | 37943 ft | 458 kts | 298° |
| 2026-04-21 04:17 | -16.97546 | 120.35855 | 37943 ft | 458 kts | 298° |
| 2026-04-21 04:18 | -16.94484 | 120.30020 | 37947 ft | 458 kts | 298° |
| 2026-04-21 04:18 | -16.91438 | 120.24222 | 37943 ft | 458 kts | 298° |
| 2026-04-21 04:19 | -16.88348 | 120.18346 | 37943 ft | 459 kts | 298° |
| 2026-04-21 04:19 | -16.85277 | 120.12511 | 37935 ft | 459 kts | 298° |
| 2026-04-21 04:20 | -16.82218 | 120.06703 | 37940 ft | 459 kts | 298° |
| 2026-04-21 04:20 | -16.79142 | 120.00868 | 37944 ft | 459 kts | 299° |
| 2026-04-21 04:21 | -16.76061 | 119.95029 | 37939 ft | 459 kts | 299° |
| 2026-04-21 04:21 | -16.72978 | 119.89190 | 37935 ft | 459 kts | 299° |
| 2026-04-21 04:22 | -16.69887 | 119.83343 | 37936 ft | 460 kts | 299° |
| 2026-04-21 04:22 | -16.66796 | 119.77500 | 37935 ft | 460 kts | 299° |
| 2026-04-21 04:23 | -16.63697 | 119.71647 | 37941 ft | 461 kts | 299° |
| 2026-04-21 04:23 | -16.60610 | 119.65821 | 37936 ft | 461 kts | 299° |
| 2026-04-21 04:24 | -16.57506 | 119.59968 | 37938 ft | 462 kts | 299° |
| 2026-04-21 04:24 | -16.54398 | 119.54112 | 37940 ft | 462 kts | 299° |
| 2026-04-21 04:25 | -16.51282 | 119.48247 | 37940 ft | 462 kts | 299° |
| 2026-04-21 04:25 | -16.48162 | 119.42378 | 37935 ft | 463 kts | 299° |
| 2026-04-21 04:26 | -16.45039 | 119.36511 | 37938 ft | 463 kts | 299° |
| 2026-04-21 04:26 | -16.41933 | 119.30678 | 37933 ft | 463 kts | 299° |
| 2026-04-21 04:27 | -16.38801 | 119.24803 | 37934 ft | 464 kts | 299° |
| 2026-04-21 04:27 | -16.35664 | 119.18923 | 37928 ft | 464 kts | 299° |
| 2026-04-21 04:28 | -16.32528 | 119.13049 | 37930 ft | 465 kts | 299° |
| 2026-04-21 04:28 | -16.29398 | 119.07192 | 37931 ft | 465 kts | 299° |
| 2026-04-21 04:29 | -16.26252 | 119.01310 | 37933 ft | 465 kts | 299° |
| 2026-04-21 04:29 | -16.23100 | 118.95420 | 37925 ft | 466 kts | 299° |
| 2026-04-21 04:30 | -16.19943 | 118.89528 | 37930 ft | 466 kts | 299° |
| 2026-04-21 04:30 | -16.16784 | 118.83636 | 37929 ft | 466 kts | 299° |
| 2026-04-21 04:31 | -16.13617 | 118.77734 | 37925 ft | 467 kts | 299° |
| 2026-04-21 04:31 | -16.10450 | 118.71837 | 37928 ft | 467 kts | 299° |
| 2026-04-21 04:32 | -16.07300 | 118.65977 | 37926 ft | 467 kts | 299° |
| 2026-04-21 04:32 | -16.04124 | 118.60073 | 37924 ft | 467 kts | 300° |
| 2026-04-21 04:33 | -16.00947 | 118.54173 | 37925 ft | 467 kts | 300° |
| 2026-04-21 04:33 | -15.97767 | 118.48271 | 37925 ft | 468 kts | 300° |
| 2026-04-21 04:34 | -15.94583 | 118.42367 | 37922 ft | 468 kts | 300° |
| 2026-04-21 04:34 | -15.91399 | 118.36468 | 37920 ft | 468 kts | 300° |
| 2026-04-21 04:35 | -15.88210 | 118.30563 | 37922 ft | 468 kts | 300° |
| 2026-04-21 04:35 | -15.85036 | 118.24692 | 37919 ft | 469 kts | 300° |
| 2026-04-21 04:36 | -15.81843 | 118.18791 | 37920 ft | 469 kts | 300° |
| 2026-04-21 04:36 | -15.78646 | 118.12888 | 37915 ft | 469 kts | 300° |
| 2026-04-21 04:37 | -15.75440 | 118.06972 | 37930 ft | 469 kts | 299° |
| 2026-04-21 04:37 | -15.72247 | 118.01089 | 37942 ft | 467 kts | 299° |
| 2026-04-21 04:38 | -15.69065 | 117.95222 | 37933 ft | 466 kts | 299° |
| 2026-04-21 04:38 | -15.65906 | 117.89407 | 37912 ft | 465 kts | 299° |
| 2026-04-21 04:39 | -15.62725 | 117.83556 | 37900 ft | 465 kts | 299° |
| 2026-04-21 04:39 | -15.59548 | 117.77718 | 37891 ft | 465 kts | 299° |
| 2026-04-21 04:40 | -15.56359 | 117.71861 | 37891 ft | 466 kts | 299° |
| 2026-04-21 04:40 | -15.53166 | 117.66003 | 37896 ft | 467 kts | 300° |
| 2026-04-21 04:41 | -15.49964 | 117.60132 | 37899 ft | 468 kts | 300° |
| 2026-04-21 04:41 | -15.46754 | 117.54251 | 37900 ft | 469 kts | 300° |
| 2026-04-21 04:42 | -15.43532 | 117.48353 | 37905 ft | 470 kts | 300° |
| 2026-04-21 04:42 | -15.40323 | 117.42484 | 37905 ft | 472 kts | 300° |
| 2026-04-21 04:43 | -15.37081 | 117.36559 | 37913 ft | 472 kts | 300° |
| 2026-04-21 04:43 | -15.33837 | 117.30636 | 37920 ft | 473 kts | 300° |
| 2026-04-21 04:44 | -15.31137 | 117.25708 | 37921 ft | 472 kts | 300° |
| 2026-04-21 04:44 | -15.27891 | 117.19787 | 37917 ft | 472 kts | 300° |
| 2026-04-21 04:45 | -15.24653 | 117.13883 | 37911 ft | 471 kts | 300° |
| 2026-04-21 04:45 | -15.21415 | 117.07983 | 37908 ft | 471 kts | 300° |
| 2026-04-21 04:46 | -15.18183 | 117.02100 | 37903 ft | 470 kts | 300° |
| 2026-04-21 04:46 | -15.14944 | 116.96217 | 37902 ft | 470 kts | 300° |
| 2026-04-21 04:47 | -15.11709 | 116.90340 | 37900 ft | 469 kts | 300° |
| 2026-04-21 04:47 | -15.08483 | 116.84477 | 37897 ft | 469 kts | 300° |
| 2026-04-21 04:48 | -15.05275 | 116.78654 | 37900 ft | 468 kts | 300° |
| 2026-04-21 04:48 | -15.02053 | 116.72808 | 37899 ft | 467 kts | 300° |
| 2026-04-21 04:49 | -14.98827 | 116.66960 | 37892 ft | 467 kts | 300° |
| 2026-04-21 04:49 | -14.95603 | 116.61122 | 37894 ft | 467 kts | 300° |
| 2026-04-21 04:50 | -14.92375 | 116.55280 | 37891 ft | 467 kts | 300° |
| 2026-04-21 04:50 | -14.89151 | 116.49449 | 37897 ft | 467 kts | 301° |
| 2026-04-21 04:51 | -14.85943 | 116.43652 | 37901 ft | 467 kts | 301° |
| 2026-04-21 04:51 | -14.82717 | 116.37827 | 37899 ft | 466 kts | 301° |
| 2026-04-21 04:52 | -14.79488 | 116.32001 | 37894 ft | 467 kts | 301° |
| 2026-04-21 04:52 | -14.76263 | 116.26185 | 37891 ft | 467 kts | 300° |
| 2026-04-21 04:53 | -14.73023 | 116.20348 | 37895 ft | 467 kts | 300° |
| 2026-04-21 04:53 | -14.69803 | 116.14551 | 37895 ft | 467 kts | 300° |
| 2026-04-21 04:54 | -14.66568 | 116.08730 | 37896 ft | 467 kts | 300° |
| 2026-04-21 04:54 | -14.63328 | 116.02906 | 37901 ft | 467 kts | 300° |
| 2026-04-21 04:55 | -14.60086 | 115.97083 | 37899 ft | 467 kts | 300° |
| 2026-04-21 04:55 | -14.56849 | 115.91273 | 37896 ft | 467 kts | 300° |
| 2026-04-21 04:56 | -14.53611 | 115.85464 | 37888 ft | 467 kts | 300° |
| 2026-04-21 04:56 | -14.50371 | 115.79657 | 37886 ft | 467 kts | 300° |
| 2026-04-21 04:57 | -14.47147 | 115.73883 | 37888 ft | 467 kts | 300° |
| 2026-04-21 04:57 | -14.43905 | 115.68079 | 37888 ft | 467 kts | 300° |
| 2026-04-21 04:58 | -14.40654 | 115.62266 | 37888 ft | 467 kts | 300° |
| 2026-04-21 04:58 | -14.37405 | 115.56458 | 37883 ft | 468 kts | 300° |
| 2026-04-21 04:59 | -14.34146 | 115.50640 | 37887 ft | 468 kts | 300° |
| 2026-04-21 04:59 | -14.30909 | 115.44862 | 37890 ft | 468 kts | 300° |
| 2026-04-21 05:00 | -14.27652 | 115.39055 | 37891 ft | 468 kts | 300° |
| 2026-04-21 05:00 | -14.22762 | 115.30342 | 37890 ft | 468 kts | 300° |
| 2026-04-21 05:01 | -14.19503 | 115.24540 | 37881 ft | 468 kts | 300° |
| 2026-04-21 05:01 | -14.16259 | 115.18770 | 37878 ft | 468 kts | 300° |
| 2026-04-21 05:02 | -14.12992 | 115.12960 | 37878 ft | 469 kts | 300° |
| 2026-04-21 05:02 | -14.09714 | 115.07146 | 37879 ft | 469 kts | 300° |
| 2026-04-21 05:03 | -14.06435 | 115.01329 | 37886 ft | 469 kts | 300° |
| 2026-04-21 05:03 | -14.03178 | 114.95551 | 37893 ft | 469 kts | 300° |
| 2026-04-21 05:04 | -13.99900 | 114.89738 | 37895 ft | 470 kts | 300° |
| 2026-04-21 05:04 | -13.96606 | 114.83903 | 37891 ft | 470 kts | 300° |
| 2026-04-21 05:05 | -13.93311 | 114.78073 | 37896 ft | 471 kts | 300° |
| 2026-04-21 05:05 | -13.90035 | 114.72280 | 37891 ft | 471 kts | 300° |
| 2026-04-21 05:06 | -13.86734 | 114.66446 | 37893 ft | 472 kts | 300° |
| 2026-04-21 05:06 | -13.83431 | 114.60613 | 37895 ft | 472 kts | 300° |
| 2026-04-21 05:07 | -13.80124 | 114.54776 | 37892 ft | 472 kts | 300° |
| 2026-04-21 05:07 | -13.76809 | 114.48931 | 37893 ft | 473 kts | 300° |
| 2026-04-21 05:08 | -13.73495 | 114.43091 | 37889 ft | 473 kts | 300° |
| 2026-04-21 05:08 | -13.70178 | 114.37250 | 37890 ft | 473 kts | 300° |
| 2026-04-21 05:09 | -13.66853 | 114.31399 | 37894 ft | 474 kts | 300° |
| 2026-04-21 05:09 | -13.63523 | 114.25543 | 37883 ft | 474 kts | 300° |
| 2026-04-21 05:10 | -13.60194 | 114.19693 | 37882 ft | 474 kts | 300° |
| 2026-04-21 05:10 | -13.56884 | 114.13880 | 37881 ft | 474 kts | 300° |
| 2026-04-21 05:11 | -13.53551 | 114.08031 | 37889 ft | 474 kts | 300° |
| 2026-04-21 05:11 | -13.50213 | 114.02177 | 37887 ft | 474 kts | 300° |
| 2026-04-21 05:12 | -13.46875 | 113.96326 | 37886 ft | 474 kts | 300° |
| 2026-04-21 05:12 | -13.43534 | 113.90476 | 37885 ft | 475 kts | 300° |
| 2026-04-21 05:13 | -13.40191 | 113.84625 | 37889 ft | 475 kts | 300° |
| 2026-04-21 05:13 | -13.36869 | 113.78815 | 37888 ft | 475 kts | 300° |
| 2026-04-21 05:14 | -13.33524 | 113.72968 | 37884 ft | 475 kts | 300° |
| 2026-04-21 05:14 | -13.30172 | 113.67115 | 37881 ft | 475 kts | 300° |
| 2026-04-21 05:15 | -13.26827 | 113.61276 | 37879 ft | 475 kts | 300° |
| 2026-04-21 05:15 | -13.23472 | 113.55425 | 37878 ft | 475 kts | 300° |
| 2026-04-21 05:16 | -13.20139 | 113.49615 | 37877 ft | 475 kts | 300° |
| 2026-04-21 05:16 | -13.16780 | 113.43763 | 37879 ft | 475 kts | 300° |
| 2026-04-21 05:17 | -13.13417 | 113.37911 | 37882 ft | 475 kts | 300° |
| 2026-04-21 05:17 | -13.10051 | 113.32055 | 37877 ft | 476 kts | 300° |
| 2026-04-21 05:18 | -13.06685 | 113.26203 | 37880 ft | 476 kts | 300° |
| 2026-04-21 05:18 | -13.03344 | 113.20398 | 37882 ft | 476 kts | 300° |
| 2026-04-21 05:19 | -12.99970 | 113.14542 | 37881 ft | 476 kts | 300° |
| 2026-04-21 05:19 | -12.96600 | 113.08696 | 37876 ft | 476 kts | 300° |
| 2026-04-21 05:20 | -12.93229 | 113.02850 | 37877 ft | 476 kts | 301° |
| 2026-04-21 05:20 | -12.89856 | 112.97007 | 37877 ft | 476 kts | 301° |
| 2026-04-21 05:21 | -12.86499 | 112.91193 | 37879 ft | 476 kts | 301° |
| 2026-04-21 05:21 | -12.83120 | 112.85347 | 37879 ft | 477 kts | 301° |
| 2026-04-21 05:22 | -12.79736 | 112.79495 | 37884 ft | 477 kts | 301° |
| 2026-04-21 05:22 | -12.76352 | 112.73646 | 37883 ft | 477 kts | 301° |
| 2026-04-21 05:23 | -12.72966 | 112.67798 | 37879 ft | 477 kts | 301° |
| 2026-04-21 05:23 | -12.69579 | 112.61953 | 37887 ft | 477 kts | 301° |
| 2026-04-21 05:24 | -12.66184 | 112.56097 | 37885 ft | 478 kts | 300° |
| 2026-04-21 05:24 | -12.62805 | 112.50273 | 37882 ft | 478 kts | 300° |
| 2026-04-21 05:25 | -12.59406 | 112.44417 | 37882 ft | 478 kts | 300° |
| 2026-04-21 05:25 | -12.56007 | 112.38567 | 37881 ft | 478 kts | 300° |
| 2026-04-21 05:26 | -12.52599 | 112.32704 | 37886 ft | 478 kts | 300° |
| 2026-04-21 05:26 | -12.49214 | 112.26883 | 37882 ft | 478 kts | 300° |
| 2026-04-21 05:27 | -12.45809 | 112.21032 | 37873 ft | 478 kts | 300° |
| 2026-04-21 05:27 | -12.42392 | 112.15165 | 37874 ft | 479 kts | 300° |
| 2026-04-21 05:28 | -12.38985 | 112.09318 | 37879 ft | 479 kts | 300° |
| 2026-04-21 05:28 | -12.35571 | 112.03464 | 37872 ft | 479 kts | 300° |
| 2026-04-21 05:29 | -12.32154 | 111.97607 | 37880 ft | 479 kts | 300° |
| 2026-04-21 05:29 | -12.28735 | 111.91751 | 37879 ft | 480 kts | 300° |
| 2026-04-21 05:30 | -12.25327 | 111.85917 | 37871 ft | 480 kts | 300° |
| 2026-04-21 05:30 | -12.21896 | 111.80049 | 37876 ft | 480 kts | 301° |
| 2026-04-21 05:31 | -12.18467 | 111.74186 | 37874 ft | 481 kts | 300° |
| 2026-04-21 05:31 | -12.15032 | 111.68316 | 37877 ft | 481 kts | 300° |
| 2026-04-21 05:32 | -12.11610 | 111.62472 | 37878 ft | 481 kts | 301° |
| 2026-04-21 05:32 | -12.08725 | 111.57549 | 37875 ft | 482 kts | 300° |
| 2026-04-21 05:33 | -12.05305 | 111.51716 | 37897 ft | 482 kts | 301° |
| 2026-04-21 05:33 | -12.01721 | 111.45932 | 37876 ft | 482 kts | 306° |
| 2026-04-21 05:34 | -11.96527 | 111.39976 | 37880 ft | 483 kts | 316° |
| 2026-04-21 05:34 | -11.92184 | 111.36308 | 37877 ft | 484 kts | 321° |
| 2026-04-21 05:35 | -11.86944 | 111.32045 | 37875 ft | 484 kts | 320° |
| 2026-04-21 05:35 | -11.81677 | 111.27746 | 37877 ft | 484 kts | 320° |
| 2026-04-21 05:36 | -11.76401 | 111.23449 | 37874 ft | 485 kts | 320° |
| 2026-04-21 05:36 | -11.71120 | 111.19151 | 37896 ft | 485 kts | 321° |
| 2026-04-21 05:37 | -11.65843 | 111.14861 | 37875 ft | 485 kts | 321° |
| 2026-04-21 05:37 | -11.60595 | 111.10596 | 37879 ft | 485 kts | 321° |
| 2026-04-21 05:38 | -11.55311 | 111.06303 | 37874 ft | 485 kts | 321° |
| 2026-04-21 05:38 | -11.50029 | 111.02015 | 37893 ft | 485 kts | 321° |
| 2026-04-21 05:39 | -11.44745 | 110.97727 | 37873 ft | 485 kts | 321° |
| 2026-04-21 05:39 | -11.39459 | 110.93440 | 37875 ft | 485 kts | 321° |
| 2026-04-21 05:40 | -11.34171 | 110.89152 | 37888 ft | 485 kts | 321° |
| 2026-04-21 05:40 | -11.28886 | 110.84870 | 37870 ft | 486 kts | 321° |
| 2026-04-21 05:41 | -11.23595 | 110.80584 | 37866 ft | 486 kts | 321° |
| 2026-04-21 05:41 | -11.18302 | 110.76299 | 37871 ft | 486 kts | 321° |
| 2026-04-21 05:42 | -11.13009 | 110.72017 | 37871 ft | 486 kts | 321° |
| 2026-04-21 05:42 | -11.07741 | 110.67757 | 37864 ft | 487 kts | 321° |
| 2026-04-21 05:43 | -11.02433 | 110.63465 | 37870 ft | 487 kts | 321° |
| 2026-04-21 05:43 | -10.97127 | 110.59178 | 37892 ft | 487 kts | 321° |
| 2026-04-21 05:44 | -10.91813 | 110.54886 | 37871 ft | 487 kts | 321° |
| 2026-04-21 05:44 | -10.86499 | 110.50597 | 37865 ft | 488 kts | 321° |
| 2026-04-21 05:45 | -10.81180 | 110.46305 | 37865 ft | 488 kts | 321° |
| 2026-04-21 05:45 | -10.75899 | 110.42047 | 37871 ft | 487 kts | 321° |
| 2026-04-21 05:46 | -10.70576 | 110.37755 | 37867 ft | 488 kts | 321° |
| 2026-04-21 05:46 | -10.65247 | 110.33461 | 37873 ft | 488 kts | 321° |
| 2026-04-21 05:47 | -10.59930 | 110.29179 | 37864 ft | 488 kts | 321° |
| 2026-04-21 05:47 | -10.54638 | 110.24919 | 37865 ft | 488 kts | 321° |
| 2026-04-21 05:48 | -10.49312 | 110.20634 | 37864 ft | 488 kts | 321° |
| 2026-04-21 05:48 | -10.43979 | 110.16345 | 37862 ft | 488 kts | 321° |
| 2026-04-21 05:49 | -10.38655 | 110.12065 | 37866 ft | 489 kts | 321° |
| 2026-04-21 05:49 | -10.33313 | 110.07772 | 37869 ft | 489 kts | 321° |
| 2026-04-21 05:50 | -10.27966 | 110.03478 | 37870 ft | 489 kts | 321° |
| 2026-04-21 05:50 | -10.22661 | 109.99218 | 37867 ft | 490 kts | 321° |
| 2026-04-21 05:51 | -10.17318 | 109.94931 | 37870 ft | 490 kts | 321° |
| 2026-04-21 05:51 | -10.11959 | 109.90632 | 37867 ft | 490 kts | 321° |
| 2026-04-21 05:52 | -10.06613 | 109.86345 | 37869 ft | 490 kts | 321° |
| 2026-04-21 05:52 | -10.01260 | 109.82055 | 37866 ft | 490 kts | 321° |
| 2026-04-21 05:53 | -9.95903 | 109.77764 | 37863 ft | 490 kts | 321° |
| 2026-04-21 05:53 | -9.90549 | 109.73477 | 37863 ft | 490 kts | 321° |
| 2026-04-21 05:54 | -9.85195 | 109.69192 | 37860 ft | 490 kts | 321° |
| 2026-04-21 05:54 | -9.79870 | 109.64931 | 37857 ft | 491 kts | 321° |
| 2026-04-21 05:55 | -9.74510 | 109.60645 | 37862 ft | 491 kts | 321° |
| 2026-04-21 05:55 | -9.69136 | 109.56349 | 37865 ft | 491 kts | 321° |
| 2026-04-21 05:56 | -9.63763 | 109.52056 | 37865 ft | 491 kts | 322° |
| 2026-04-21 05:56 | -9.58392 | 109.47766 | 37865 ft | 491 kts | 322° |
| 2026-04-21 05:57 | -9.53020 | 109.43477 | 37862 ft | 492 kts | 322° |
| 2026-04-21 05:57 | -9.47648 | 109.39190 | 37862 ft | 492 kts | 322° |
| 2026-04-21 05:58 | -9.42262 | 109.34894 | 37857 ft | 492 kts | 322° |
| 2026-04-21 05:58 | -9.36921 | 109.30635 | 37857 ft | 492 kts | 322° |
| 2026-04-21 05:59 | -9.31535 | 109.26341 | 37860 ft | 492 kts | 322° |
| 2026-04-21 06:00 | -9.23445 | 109.19896 | 37864 ft | 492 kts | 322° |
| 2026-04-21 06:00 | -9.18055 | 109.15605 | 37864 ft | 492 kts | 322° |
| 2026-04-21 06:01 | -9.12672 | 109.11319 | 37864 ft | 492 kts | 322° |
| 2026-04-21 06:01 | -9.07281 | 109.07030 | 37860 ft | 492 kts | 322° |
| 2026-04-21 06:02 | -9.01923 | 109.02769 | 37861 ft | 493 kts | 322° |
| 2026-04-21 06:02 | -8.96531 | 108.98482 | 37857 ft | 493 kts | 322° |
| 2026-04-21 06:03 | -8.91142 | 108.94199 | 37861 ft | 493 kts | 322° |
| 2026-04-21 06:03 | -8.85743 | 108.89911 | 37861 ft | 493 kts | 322° |
| 2026-04-21 06:04 | -8.80347 | 108.85626 | 37862 ft | 493 kts | 322° |
| 2026-04-21 06:04 | -8.74950 | 108.81342 | 37861 ft | 494 kts | 322° |
| 2026-04-21 06:05 | -8.69538 | 108.77048 | 37864 ft | 494 kts | 322° |
| 2026-04-21 06:05 | -8.64131 | 108.72759 | 37860 ft | 494 kts | 322° |
| 2026-04-21 06:06 | -8.58729 | 108.68475 | 37860 ft | 494 kts | 322° |
| 2026-04-21 06:06 | -8.53350 | 108.64211 | 37859 ft | 494 kts | 322° |
| 2026-04-21 06:07 | -8.47940 | 108.59925 | 37859 ft | 494 kts | 322° |
| 2026-04-21 06:07 | -8.42520 | 108.55633 | 37853 ft | 495 kts | 322° |
| 2026-04-21 06:08 | -8.37103 | 108.51343 | 37854 ft | 495 kts | 322° |
| 2026-04-21 06:08 | -8.31687 | 108.47057 | 37853 ft | 495 kts | 322° |
| 2026-04-21 06:09 | -8.26299 | 108.42795 | 37852 ft | 495 kts | 322° |
| 2026-04-21 06:09 | -8.20874 | 108.38504 | 37857 ft | 495 kts | 322° |
| 2026-04-21 06:10 | -8.15455 | 108.34218 | 37852 ft | 495 kts | 322° |
| 2026-04-21 06:10 | -8.10024 | 108.29925 | 37855 ft | 495 kts | 322° |
| 2026-04-21 06:11 | -8.04587 | 108.25634 | 37854 ft | 495 kts | 322° |
| 2026-04-21 06:11 | -7.99122 | 108.21406 | 37851 ft | 495 kts | 323° |
| 2026-04-21 06:12 | -7.93642 | 108.17175 | 37854 ft | 496 kts | 323° |
| 2026-04-21 06:12 | -7.88204 | 108.12967 | 37852 ft | 496 kts | 323° |
| 2026-04-21 06:13 | -7.82729 | 108.08729 | 37859 ft | 496 kts | 323° |
| 2026-04-21 06:13 | -7.77262 | 108.04498 | 37859 ft | 496 kts | 323° |
| 2026-04-21 06:14 | -7.71789 | 108.00265 | 37864 ft | 496 kts | 323° |
| 2026-04-21 06:14 | -7.66308 | 107.96027 | 37864 ft | 496 kts | 323° |
| 2026-04-21 06:15 | -7.60834 | 107.91796 | 37873 ft | 496 kts | 323° |
| 2026-04-21 06:15 | -7.55358 | 107.87564 | 37873 ft | 496 kts | 323° |
| 2026-04-21 06:16 | -7.49884 | 107.83335 | 37878 ft | 495 kts | 323° |
| 2026-04-21 06:16 | -7.44446 | 107.79136 | 37877 ft | 495 kts | 323° |
| 2026-04-21 06:17 | -7.38980 | 107.74917 | 37882 ft | 495 kts | 323° |
| 2026-04-21 06:17 | -7.33504 | 107.70691 | 37885 ft | 495 kts | 323° |
| 2026-04-21 06:18 | -7.28046 | 107.66480 | 37891 ft | 494 kts | 323° |
| 2026-04-21 06:18 | -7.22701 | 107.62357 | 37885 ft | 494 kts | 323° |
| 2026-04-21 06:19 | -7.17236 | 107.58144 | 37887 ft | 494 kts | 323° |
| 2026-04-21 06:19 | -7.11780 | 107.53938 | 37887 ft | 494 kts | 323° |
| 2026-04-21 06:20 | -7.06346 | 107.49750 | 37886 ft | 494 kts | 323° |
| 2026-04-21 06:20 | -7.00897 | 107.45539 | 37883 ft | 494 kts | 323° |
| 2026-04-21 06:21 | -6.95449 | 107.41328 | 37882 ft | 493 kts | 323° |
| 2026-04-21 06:21 | -6.90892 | 107.37808 | 37874 ft | 493 kts | 323° |
| 2026-04-21 06:22 | -6.85446 | 107.33604 | 37859 ft | 493 kts | 323° |
| 2026-04-21 06:22 | -6.80008 | 107.29406 | 37852 ft | 493 kts | 323° |
| 2026-04-21 06:23 | -6.74570 | 107.25209 | 37850 ft | 492 kts | 323° |
| 2026-04-21 06:23 | -6.69173 | 107.21047 | 37846 ft | 492 kts | 323° |
| 2026-04-21 06:24 | -6.63734 | 107.16853 | 37843 ft | 492 kts | 323° |
| 2026-04-21 06:24 | -6.58308 | 107.12669 | 37835 ft | 491 kts | 323° |
| 2026-04-21 06:25 | -6.52880 | 107.08485 | 37832 ft | 491 kts | 323° |
| 2026-04-21 06:25 | -6.47454 | 107.04305 | 37826 ft | 491 kts | 323° |
| 2026-04-21 06:26 | -6.42029 | 107.00126 | 37820 ft | 491 kts | 323° |
| 2026-04-21 06:26 | -6.36599 | 106.95944 | 37824 ft | 491 kts | 323° |
| 2026-04-21 06:27 | -6.31272 | 106.91652 | 37823 ft | 491 kts | 315° |
| 2026-04-21 06:27 | -6.27259 | 106.86192 | 37825 ft | 491 kts | 297° |
| 2026-04-21 06:28 | -6.25068 | 106.79702 | 37823 ft | 492 kts | 283° |
| 2026-04-21 06:28 | -6.23509 | 106.72998 | 37792 ft | 492 kts | 284° |
| 2026-04-21 06:29 | -6.21927 | 106.66310 | 37792 ft | 492 kts | 284° |
| 2026-04-21 06:29 | -6.20205 | 106.59658 | 37792 ft | 491 kts | 291° |
| 2026-04-21 06:30 | -6.16865 | 106.53714 | 37793 ft | 490 kts | 309° |
| 2026-04-21 06:30 | -6.11873 | 106.49102 | 37805 ft | 488 kts | 327° |
| 2026-04-21 06:31 | -6.05989 | 106.45711 | 37806 ft | 488 kts | 330° |
| 2026-04-21 06:31 | -6.00081 | 106.42331 | 37818 ft | 488 kts | 330° |
| 2026-04-21 06:32 | -5.94172 | 106.38953 | 37821 ft | 488 kts | 330° |
| 2026-04-21 06:32 | -5.88265 | 106.35583 | 37824 ft | 489 kts | 330° |
| 2026-04-21 06:33 | -5.82351 | 106.32211 | 37823 ft | 489 kts | 330° |
| 2026-04-21 06:33 | -5.76475 | 106.28861 | 37822 ft | 488 kts | 330° |
| 2026-04-21 06:34 | -5.70570 | 106.25496 | 37828 ft | 488 kts | 330° |
| 2026-04-21 06:34 | -5.64661 | 106.22129 | 37835 ft | 488 kts | 330° |
| 2026-04-21 06:35 | -5.58760 | 106.18768 | 37835 ft | 487 kts | 330° |
| 2026-04-21 06:35 | -5.52867 | 106.15411 | 37839 ft | 487 kts | 330° |
| 2026-04-21 06:36 | -5.46986 | 106.12063 | 37836 ft | 486 kts | 330° |
| 2026-04-21 06:36 | -5.41100 | 106.08712 | 37831 ft | 486 kts | 330° |
| 2026-04-21 06:37 | -5.35220 | 106.05366 | 37840 ft | 485 kts | 330° |
| 2026-04-21 06:37 | -5.29394 | 106.02051 | 37837 ft | 485 kts | 330° |
| 2026-04-21 06:38 | -5.23529 | 105.98715 | 37834 ft | 484 kts | 330° |
| 2026-04-21 06:38 | -5.17671 | 105.95383 | 37830 ft | 484 kts | 330° |
| 2026-04-21 06:39 | -5.11810 | 105.92050 | 37835 ft | 484 kts | 330° |
| 2026-04-21 06:39 | -5.05956 | 105.88715 | 37820 ft | 484 kts | 330° |
| 2026-04-21 06:40 | -5.00108 | 105.85382 | 37819 ft | 484 kts | 330° |
| 2026-04-21 06:40 | -4.94255 | 105.82047 | 37818 ft | 484 kts | 330° |
| 2026-04-21 06:41 | -4.88393 | 105.78709 | 37815 ft | 484 kts | 330° |
| 2026-04-21 06:41 | -4.82567 | 105.75392 | 37824 ft | 484 kts | 330° |
| 2026-04-21 06:42 | -4.76704 | 105.72054 | 37827 ft | 484 kts | 330° |
| 2026-04-21 06:42 | -4.70839 | 105.68715 | 37826 ft | 485 kts | 330° |
| 2026-04-21 06:43 | -4.64975 | 105.65378 | 37824 ft | 484 kts | 330° |
| 2026-04-21 06:43 | -4.59110 | 105.62041 | 37828 ft | 484 kts | 330° |
| 2026-04-21 06:44 | -4.53250 | 105.58708 | 37826 ft | 484 kts | 330° |
| 2026-04-21 06:44 | -4.47391 | 105.55376 | 37827 ft | 484 kts | 330° |
| 2026-04-21 06:45 | -4.41572 | 105.52067 | 37821 ft | 484 kts | 330° |
| 2026-04-21 06:45 | -4.35720 | 105.48740 | 37819 ft | 484 kts | 330° |
| 2026-04-21 06:46 | -4.29859 | 105.45408 | 37810 ft | 484 kts | 330° |
| 2026-04-21 06:46 | -4.24000 | 105.42078 | 37815 ft | 484 kts | 330° |
| 2026-04-21 06:47 | -4.18149 | 105.38754 | 37813 ft | 484 kts | 330° |
| 2026-04-21 06:47 | -4.12320 | 105.35442 | 37808 ft | 484 kts | 330° |
| 2026-04-21 06:48 | -4.06456 | 105.32111 | 37815 ft | 484 kts | 330° |
| 2026-04-21 06:48 | -4.00586 | 105.28778 | 37819 ft | 485 kts | 330° |
| 2026-04-21 06:49 | -3.94715 | 105.25444 | 37821 ft | 485 kts | 330° |
| 2026-04-21 06:49 | -3.88833 | 105.22110 | 37822 ft | 485 kts | 330° |
| 2026-04-21 06:50 | -3.82948 | 105.18801 | 37822 ft | 485 kts | 330° |
| 2026-04-21 06:50 | -3.77055 | 105.15486 | 37825 ft | 486 kts | 330° |
| 2026-04-21 06:51 | -3.71166 | 105.12171 | 37825 ft | 486 kts | 330° |
| 2026-04-21 06:51 | -3.65273 | 105.08853 | 37834 ft | 485 kts | 330° |
| 2026-04-21 06:52 | -3.59386 | 105.05540 | 37825 ft | 485 kts | 330° |
| 2026-04-21 06:52 | -3.53502 | 105.02229 | 37825 ft | 485 kts | 330° |
| 2026-04-21 06:53 | -3.47651 | 104.98938 | 37819 ft | 485 kts | 330° |
| 2026-04-21 06:53 | -3.41765 | 104.95627 | 37821 ft | 485 kts | 330° |
| 2026-04-21 06:54 | -3.35877 | 104.92314 | 37829 ft | 485 kts | 330° |
| 2026-04-21 06:54 | -3.29980 | 104.88998 | 37820 ft | 485 kts | 330° |
| 2026-04-21 06:55 | -3.24098 | 104.85691 | 37822 ft | 485 kts | 330° |
| 2026-04-21 06:55 | -3.18249 | 104.82402 | 37827 ft | 485 kts | 330° |
| 2026-04-21 06:56 | -3.12328 | 104.79074 | 37822 ft | 485 kts | 331° |
| 2026-04-21 06:56 | -3.06470 | 104.75781 | 37825 ft | 485 kts | 331° |
| 2026-04-21 06:57 | -3.00581 | 104.72471 | 37828 ft | 485 kts | 331° |
| 2026-04-21 06:57 | -2.94684 | 104.69158 | 37827 ft | 486 kts | 331° |
| 2026-04-21 06:58 | -2.88613 | 104.66193 | 37827 ft | 485 kts | 339° |
| 2026-04-21 06:58 | -2.82145 | 104.64242 | 37824 ft | 485 kts | 348° |
| 2026-04-21 06:59 | -2.75493 | 104.62993 | 37821 ft | 486 kts | 349° |
| 2026-04-21 06:59 | -2.68893 | 104.61739 | 37823 ft | 486 kts | 349° |
| 2026-04-21 07:00 | -2.62236 | 104.60476 | 37826 ft | 487 kts | 349° |
| 2026-04-21 07:00 | -2.55569 | 104.59215 | 37827 ft | 488 kts | 349° |
| 2026-04-21 07:01 | -2.48894 | 104.57954 | 37828 ft | 488 kts | 349° |
| 2026-04-21 07:01 | -2.38876 | 104.56061 | 37835 ft | 489 kts | 349° |
| 2026-04-21 07:02 | -2.32191 | 104.54798 | 37834 ft | 489 kts | 349° |
| 2026-04-21 07:02 | -2.25491 | 104.53532 | 37835 ft | 489 kts | 349° |
| 2026-04-21 07:03 | -2.18838 | 104.52275 | 37832 ft | 489 kts | 349° |
| 2026-04-21 07:03 | -2.12151 | 104.51012 | 37839 ft | 489 kts | 349° |
| 2026-04-21 07:04 | -2.05458 | 104.49748 | 37839 ft | 489 kts | 349° |
| 2026-04-21 07:04 | -1.98764 | 104.48485 | 37834 ft | 489 kts | 349° |
| 2026-04-21 07:05 | -1.92069 | 104.47220 | 37829 ft | 489 kts | 349° |
| 2026-04-21 07:05 | -1.85366 | 104.45954 | 37833 ft | 490 kts | 349° |
| 2026-04-21 07:06 | -1.78715 | 104.44699 | 37834 ft | 490 kts | 349° |
| 2026-04-21 07:06 | -1.72003 | 104.43432 | 37834 ft | 490 kts | 349° |
| 2026-04-21 07:07 | -1.65292 | 104.42165 | 37840 ft | 491 kts | 349° |
| 2026-04-21 07:07 | -1.58574 | 104.40897 | 37839 ft | 491 kts | 349° |
| 2026-04-21 07:08 | -1.51856 | 104.39629 | 37837 ft | 491 kts | 349° |
| 2026-04-21 07:08 | -1.46272 | 104.38575 | 37841 ft | 491 kts | 349° |
| 2026-04-21 07:09 | -1.39550 | 104.37306 | 37840 ft | 491 kts | 349° |
| 2026-04-21 07:09 | -1.32821 | 104.36036 | 37843 ft | 492 kts | 349° |
| 2026-04-21 07:10 | -1.26094 | 104.34767 | 37845 ft | 491 kts | 349° |
| 2026-04-21 07:10 | -1.19409 | 104.33506 | 37848 ft | 491 kts | 349° |
| 2026-04-21 07:11 | -1.12693 | 104.32238 | 37842 ft | 491 kts | 349° |
| 2026-04-21 07:11 | -1.05977 | 104.30971 | 37841 ft | 491 kts | 349° |
| 2026-04-21 07:12 | -0.99266 | 104.29705 | 37833 ft | 491 kts | 349° |
| 2026-04-21 07:12 | -0.92536 | 104.28436 | 37833 ft | 492 kts | 349° |
| 2026-04-21 07:13 | -0.85800 | 104.27165 | 37834 ft | 492 kts | 349° |
| 2026-04-21 07:13 | -0.79065 | 104.25894 | 37837 ft | 493 kts | 349° |
| 2026-04-21 07:14 | -0.72313 | 104.24620 | 37832 ft | 494 kts | 349° |
| 2026-04-21 07:14 | -0.68941 | 104.23984 | 37577 ft | 492 kts | 349° |
| 2026-04-21 07:14 | -0.65573 | 104.23349 | 36820 ft | 494 kts | 349° |
| 2026-04-21 07:15 | -0.62169 | 104.22707 | 35791 ft | 500 kts | 349° |
| 2026-04-21 07:15 | -0.58729 | 104.22058 | 34621 ft | 509 kts | 349° |
| 2026-04-21 07:15 | -0.55222 | 104.21395 | 33666 ft | 513 kts | 349° |
| 2026-04-21 07:15 | -0.51742 | 104.20712 | 32993 ft | 507 kts | 348° |
| 2026-04-21 07:16 | -0.48348 | 104.20032 | 32545 ft | 498 kts | 348° |
| 2026-04-21 07:16 | -0.44969 | 104.19355 | 31930 ft | 493 kts | 348° |
| 2026-04-21 07:16 | -0.41628 | 104.18688 | 31324 ft | 488 kts | 348° |
| 2026-04-21 07:16 | -0.38310 | 104.18027 | 30726 ft | 484 kts | 348° |
| 2026-04-21 07:17 | -0.35016 | 104.17372 | 30122 ft | 480 kts | 348° |
| 2026-04-21 07:17 | -0.31747 | 104.16723 | 29452 ft | 477 kts | 348° |
| 2026-04-21 07:17 | -0.28517 | 104.16082 | 28857 ft | 471 kts | 348° |
| 2026-04-21 07:17 | -0.25319 | 104.15447 | 28267 ft | 465 kts | 348° |
| 2026-04-21 07:18 | -0.22160 | 104.14820 | 27671 ft | 460 kts | 348° |
| 2026-04-21 07:18 | -0.19022 | 104.14197 | 26763 ft | 462 kts | 348° |
| 2026-04-21 07:18 | -0.15858 | 104.13569 | 25928 ft | 463 kts | 348° |
| 2026-04-21 07:18 | -0.12708 | 104.12943 | 25321 ft | 458 kts | 348° |
| 2026-04-21 07:19 | -0.10987 | 104.12602 | 24978 ft | 456 kts | 349° |
| 2026-04-21 07:19 | -0.07891 | 104.11987 | 24368 ft | 451 kts | 349° |
| 2026-04-21 07:19 | -0.04985 | 104.11410 | 23803 ft | 447 kts | 349° |
| 2026-04-21 07:19 | -0.01953 | 104.10809 | 23174 ft | 442 kts | 349° |
| 2026-04-21 07:20 | 0.01052 | 104.10212 | 22484 ft | 438 kts | 349° |
| 2026-04-21 07:20 | 0.04023 | 104.09623 | 21770 ft | 434 kts | 349° |
| 2026-04-21 07:20 | 0.06973 | 104.09037 | 21099 ft | 430 kts | 349° |
| 2026-04-21 07:20 | 0.09892 | 104.08458 | 20502 ft | 424 kts | 349° |
| 2026-04-21 07:21 | 0.12733 | 104.07894 | 20332 ft | 409 kts | 349° |
| 2026-04-21 07:21 | 0.15468 | 104.07350 | 20188 ft | 394 kts | 349° |
| 2026-04-21 07:21 | 0.18074 | 104.06833 | 20063 ft | 380 kts | 349° |
| 2026-04-21 07:21 | 0.20620 | 104.06327 | 19948 ft | 367 kts | 349° |
| 2026-04-21 07:22 | 0.23086 | 104.05838 | 19843 ft | 355 kts | 349° |
| 2026-04-21 07:22 | 0.25472 | 104.05364 | 19610 ft | 348 kts | 349° |
| 2026-04-21 07:22 | 0.27856 | 104.04892 | 19183 ft | 348 kts | 349° |
| 2026-04-21 07:22 | 0.30228 | 104.04403 | 18814 ft | 347 kts | 349° |
| 2026-04-21 07:23 | 0.32583 | 104.03901 | 18446 ft | 345 kts | 348° |
| 2026-04-21 07:23 | 0.34923 | 104.03401 | 18089 ft | 343 kts | 349° |
| 2026-04-21 07:23 | 0.37249 | 104.02906 | 17697 ft | 341 kts | 349° |
| 2026-04-21 07:23 | 0.39560 | 104.02417 | 17299 ft | 338 kts | 349° |
| 2026-04-21 07:24 | 0.41863 | 104.01930 | 16914 ft | 336 kts | 349° |
| 2026-04-21 07:24 | 0.44140 | 104.01450 | 16532 ft | 334 kts | 348° |
| 2026-04-21 07:24 | 0.46404 | 104.00973 | 16155 ft | 332 kts | 348° |
| 2026-04-21 07:24 | 0.48664 | 104.00496 | 15772 ft | 330 kts | 348° |
| 2026-04-21 07:25 | 0.50909 | 104.00022 | 15403 ft | 328 kts | 348° |
| 2026-04-21 07:25 | 0.53137 | 103.99552 | 15024 ft | 327 kts | 348° |
| 2026-04-21 07:25 | 0.55356 | 103.99084 | 14665 ft | 325 kts | 348° |
| 2026-04-21 07:25 | 0.57527 | 103.98626 | 14306 ft | 322 kts | 348° |
| 2026-04-21 07:26 | 0.59718 | 103.98163 | 13958 ft | 321 kts | 348° |
| 2026-04-21 07:26 | 0.61893 | 103.97704 | 13604 ft | 319 kts | 348° |
| 2026-04-21 07:26 | 0.64057 | 103.97248 | 13215 ft | 317 kts | 348° |
| 2026-04-21 07:26 | 0.66213 | 103.96793 | 12815 ft | 315 kts | 348° |
| 2026-04-21 07:27 | 0.68349 | 103.96342 | 12436 ft | 313 kts | 348° |
| 2026-04-21 07:27 | 0.70478 | 103.95892 | 12041 ft | 312 kts | 348° |
| 2026-04-21 07:27 | 0.74515 | 103.95040 | 11319 ft | 308 kts | 348° |
| 2026-04-21 07:28 | 0.76609 | 103.94599 | 10934 ft | 306 kts | 348° |
| 2026-04-21 07:28 | 0.78691 | 103.94159 | 10567 ft | 305 kts | 348° |
| 2026-04-21 07:28 | 0.80761 | 103.93722 | 10189 ft | 303 kts | 348° |
| 2026-04-21 07:28 | 0.82819 | 103.93288 | 9823 ft | 302 kts | 348° |
| 2026-04-21 07:29 | 0.84873 | 103.92855 | 9434 ft | 300 kts | 348° |
| 2026-04-21 07:29 | 0.86904 | 103.92426 | 9040 ft | 297 kts | 348° |
| 2026-04-21 07:29 | 0.88920 | 103.92001 | 8626 ft | 295 kts | 348° |
| 2026-04-21 07:29 | 0.90928 | 103.91578 | 8053 ft | 293 kts | 348° |
| 2026-04-21 07:30 | 0.92907 | 103.91160 | 7501 ft | 289 kts | 347° |
| 2026-04-21 07:30 | 0.94871 | 103.90746 | 6984 ft | 287 kts | 347° |
| 2026-04-21 07:30 | 0.96812 | 103.90337 | 6436 ft | 284 kts | 347° |
| 2026-04-21 07:30 | 0.98732 | 103.89931 | 6135 ft | 279 kts | 347° |
| 2026-04-21 07:31 | 1.00635 | 103.89529 | 5823 ft | 280 kts | 347° |
| 2026-04-21 07:31 | 1.02527 | 103.89129 | 5502 ft | 276 kts | 347° |
| 2026-04-21 07:31 | 1.04394 | 103.88734 | 5204 ft | 272 kts | 347° |
| 2026-04-21 07:31 | 1.06234 | 103.88346 | 4889 ft | 269 kts | 347° |
| 2026-04-21 07:32 | 1.08053 | 103.87962 | 4580 ft | 266 kts | 347° |
| 2026-04-21 07:32 | 1.09847 | 103.87665 | 4261 ft | 263 kts | 358° |
| 2026-04-21 07:32 | 1.11644 | 103.87909 | 3970 ft | 261 kts | 17° |
| 2026-04-21 07:32 | 1.13307 | 103.88615 | 3688 ft | 259 kts | 23° |
| 2026-04-21 07:33 | 1.14960 | 103.89333 | 3536 ft | 259 kts | 22° |
| 2026-04-21 07:33 | 1.16579 | 103.90018 | 3522 ft | 245 kts | 22° |
| 2026-04-21 07:33 | 1.18104 | 103.90659 | 3510 ft | 231 kts | 21° |
| 2026-04-21 07:33 | 1.19578 | 103.91265 | 3260 ft | 231 kts | 21° |
| 2026-04-21 07:34 | 1.21059 | 103.91877 | 2941 ft | 229 kts | 22° |
| 2026-04-21 07:34 | 1.22524 | 103.92499 | 2582 ft | 225 kts | 22° |
| 2026-04-21 07:34 | 1.23909 | 103.93087 | 2320 ft | 209 kts | 22° |
| 2026-04-21 07:34 | 1.25191 | 103.93630 | 2087 ft | 188 kts | 22° |
| 2026-04-21 07:35 | 1.26317 | 103.94108 | 1847 ft | 164 kts | 22° |
| 2026-04-21 07:35 | 1.27324 | 103.94535 | 1680 ft | 155 kts | 22° |
| 2026-04-21 07:35 | 1.28322 | 103.94958 | 1454 ft | 155 kts | 22° |
| 2026-04-21 07:35 | 1.29316 | 103.95380 | 1229 ft | 156 kts | 22° |
| 2026-04-21 07:36 | 1.30310 | 103.95802 | 1016 ft | 152 kts | 22° |
| 2026-04-21 07:36 | 1.31254 | 103.96203 | 824 ft | 144 kts | 22° |
| 2026-04-21 07:36 | 1.32153 | 103.96584 | 654 ft | 142 kts | 22° |
| 2026-04-21 07:36 | 1.33059 | 103.96964 | 465 ft | 140 kts | 21° |
| 2026-04-21 07:37 | 1.33950 | 103.97323 | 311 ft | 136 kts | 23° |
| 2026-04-21 07:37 | 1.34829 | 103.97709 | 112 ft | 137 kts | 22° |
| 2026-04-21 07:37 | 1.35661 | 103.98061 | 36 ft | 111 kts | 23° |
| 2026-04-21 07:37 | 1.36221 | 103.98301 | 31 ft | 70 kts | 22° |
| 2026-04-21 07:38 | 1.36544 | 103.98437 | 31 ft | 34 kts | 27° |
| 2026-04-21 07:38 | 1.36710 | 103.98569 | 30 ft | 28 kts | 51° |
| 2026-04-21 07:38 | 1.36823 | 103.98713 | 29 ft | 19 kts | 57° |
| 2026-04-21 07:38 | 1.36816 | 103.98804 | 29 ft | 13 kts | 140° |
| 2026-04-21 07:39 | 1.36739 | 103.98812 | 29 ft | 13 kts | 200° |
| 2026-04-21 07:39 | 1.36648 | 103.98800 | 30 ft | 10 kts | 145° |
| 2026-04-21 07:39 | 1.36638 | 103.98852 | 30 ft | 8 kts | 83° |
| 2026-04-21 07:39 | 1.36644 | 103.98911 | 30 ft | 0 kts | 84° |